SAA6544 HKMO-EGKK
Flight info
| Callsign | SAA6544 |
|---|---|
| Flight time | 9h 57m |
| Altitude | 32000 |
| Route | NERAG1A UTIKU UQ315 NAK UM304 EPLAS P568 KUNDI/N0492F340 P568 ORNAT B21 KFR N982 DHR/N0482F360 J615 WLD V600 ABU V500 ZAW A420 TANLI UA411 JBA UA856 KIRAS UZ147 DIMAO UG6 ANB UM134 PAGRE/N0468F380 UM134 LUXUR/N0471F370 M134 GENIO/N0467F380 N859 MJV N861 ADX/N0485F300 L2 VNV/N0468F380 N861 OLOXO DCT SECHE DCT TUPAR UN861 DIKRO UM184 PILIP UN6 TELTU TELTU1G |
| Aircraft | A333/H-SDE3GHIJ2J3J5M1RVWXY/LB2D1 |
Departure
| Time | 2026-04-10 07:49 |
|---|---|
| Airport | Moi International Airport (HKMO) |
Arrival
| Time | 2026-04-10 17:47 |
|---|---|
| Airport | London Gatwick Airport (EGKK) |
| Time | Latitude | Longitude | Altitude | Speed | Heading |
|---|---|---|---|---|---|
| 2026-04-10 06:57 | -4.03108 | 39.60246 | 216 ft | 0 kts | 120° |
| 2026-04-10 07:25 | -4.03108 | 39.60245 | 207 ft | 0 kts | 120° |
| 2026-04-10 07:39 | -4.03103 | 39.60237 | 216 ft | 4 kts | 115° |
| 2026-04-10 07:39 | -4.03095 | 39.60212 | 207 ft | 3 kts | 91° |
| 2026-04-10 07:39 | -4.03099 | 39.60186 | 210 ft | 4 kts | 67° |
| 2026-04-10 07:40 | -4.03112 | 39.60163 | 216 ft | 4 kts | 48° |
| 2026-04-10 07:40 | -4.03132 | 39.60145 | 215 ft | 4 kts | 33° |
| 2026-04-10 07:40 | -4.03139 | 39.60140 | 219 ft | 0 kts | 30° |
| 2026-04-10 07:43 | -4.03138 | 39.60141 | 219 ft | 1 kts | 30° |
| 2026-04-10 07:43 | -4.03128 | 39.60146 | 216 ft | 3 kts | 24° |
| 2026-04-10 07:43 | -4.03094 | 39.60143 | 210 ft | 7 kts | 344° |
| 2026-04-10 07:44 | -4.03048 | 39.60102 | 216 ft | 11 kts | 309° |
| 2026-04-10 07:44 | -4.03005 | 39.60030 | 213 ft | 14 kts | 300° |
| 2026-04-10 07:44 | -4.02941 | 39.59953 | 213 ft | 15 kts | 347° |
| 2026-04-10 07:44 | -4.02839 | 39.59990 | 217 ft | 17 kts | 28° |
| 2026-04-10 07:45 | -4.02725 | 39.60053 | 220 ft | 20 kts | 29° |
| 2026-04-10 07:45 | -4.02593 | 39.60126 | 217 ft | 23 kts | 29° |
| 2026-04-10 07:45 | -4.02447 | 39.60209 | 221 ft | 25 kts | 29° |
| 2026-04-10 07:45 | -4.02286 | 39.60299 | 218 ft | 27 kts | 31° |
| 2026-04-10 07:46 | -4.02114 | 39.60394 | 217 ft | 29 kts | 28° |
| 2026-04-10 07:46 | -4.01935 | 39.60494 | 216 ft | 30 kts | 30° |
| 2026-04-10 07:46 | -4.01746 | 39.60600 | 217 ft | 32 kts | 29° |
| 2026-04-10 07:46 | -4.01549 | 39.60709 | 223 ft | 33 kts | 30° |
| 2026-04-10 07:47 | -4.01376 | 39.60712 | 221 ft | 3 kts | 325° |
| 2026-04-10 07:47 | -4.01375 | 39.60711 | 221 ft | 1 kts | 325° |
| 2026-04-10 07:47 | -4.01364 | 39.60702 | 223 ft | 4 kts | 316° |
| 2026-04-10 07:48 | -4.01343 | 39.60665 | 222 ft | 8 kts | 289° |
| 2026-04-10 07:48 | -4.01361 | 39.60612 | 224 ft | 7 kts | 225° |
| 2026-04-10 07:48 | -4.01394 | 39.60594 | 219 ft | 8 kts | 208° |
| 2026-04-10 07:48 | -4.01572 | 39.60497 | 222 ft | 53 kts | 210° |
| 2026-04-10 07:49 | -4.02048 | 39.60230 | 215 ft | 101 kts | 209° |
| 2026-04-10 07:49 | -4.02784 | 39.59822 | 221 ft | 140 kts | 208° |
| 2026-04-10 07:49 | -4.03712 | 39.59296 | 448 ft | 156 kts | 210° |
| 2026-04-10 07:49 | -4.04599 | 39.58736 | 1176 ft | 150 kts | 215° |
| 2026-04-10 07:50 | -4.04999 | 39.57832 | 1910 ft | 148 kts | 280° |
| 2026-04-10 07:50 | -4.04596 | 39.56935 | 2509 ft | 136 kts | 288° |
| 2026-04-10 07:50 | -4.04307 | 39.56047 | 2868 ft | 134 kts | 278° |
| 2026-04-10 07:50 | -4.04057 | 39.55162 | 3228 ft | 130 kts | 266° |
| 2026-04-10 07:51 | -4.04164 | 39.54272 | 3365 ft | 128 kts | 246° |
| 2026-04-10 07:51 | -4.04282 | 39.53388 | 3696 ft | 130 kts | 267° |
| 2026-04-10 07:51 | -4.03980 | 39.52516 | 3909 ft | 141 kts | 301° |
| 2026-04-10 07:51 | -4.03334 | 39.51746 | 3977 ft | 151 kts | 304° |
| 2026-04-10 07:52 | -4.02927 | 39.50653 | 3679 ft | 187 kts | 268° |
| 2026-04-10 07:52 | -4.02827 | 39.49215 | 3680 ft | 228 kts | 270° |
| 2026-04-10 07:52 | -4.02619 | 39.47565 | 3822 ft | 249 kts | 275° |
| 2026-04-10 07:52 | -4.02270 | 39.45814 | 4122 ft | 261 kts | 279° |
| 2026-04-10 07:53 | -4.01843 | 39.44034 | 4693 ft | 266 kts | 281° |
| 2026-04-10 07:53 | -4.01377 | 39.42222 | 5555 ft | 270 kts | 283° |
| 2026-04-10 07:53 | -4.00892 | 39.40405 | 6383 ft | 271 kts | 282° |
| 2026-04-10 07:53 | -4.00356 | 39.38581 | 6889 ft | 278 kts | 291° |
| 2026-04-10 07:54 | -3.99242 | 39.36953 | 7323 ft | 288 kts | 311° |
| 2026-04-10 07:54 | -3.97863 | 39.35514 | 8062 ft | 284 kts | 315° |
| 2026-04-10 07:54 | -3.96467 | 39.34110 | 8680 ft | 287 kts | 315° |
| 2026-04-10 07:54 | -3.95041 | 39.32669 | 9158 ft | 295 kts | 315° |
| 2026-04-10 07:55 | -3.93602 | 39.31202 | 9812 ft | 295 kts | 315° |
| 2026-04-10 07:55 | -3.92178 | 39.29743 | 10478 ft | 293 kts | 315° |
| 2026-04-10 07:55 | -3.90754 | 39.28279 | 11068 ft | 294 kts | 316° |
| 2026-04-10 07:55 | -3.89322 | 39.26807 | 11500 ft | 302 kts | 316° |
| 2026-04-10 07:56 | -3.87856 | 39.25297 | 12106 ft | 301 kts | 315° |
| 2026-04-10 07:56 | -3.86372 | 39.23768 | 12688 ft | 303 kts | 315° |
| 2026-04-10 07:56 | -3.84912 | 39.22264 | 13145 ft | 308 kts | 315° |
| 2026-04-10 07:56 | -3.83411 | 39.20716 | 13663 ft | 312 kts | 316° |
| 2026-04-10 07:57 | -3.81882 | 39.19142 | 14105 ft | 316 kts | 316° |
| 2026-04-10 07:57 | -3.80356 | 39.17567 | 14649 ft | 315 kts | 316° |
| 2026-04-10 07:57 | -3.78817 | 39.15982 | 15075 ft | 319 kts | 316° |
| 2026-04-10 07:57 | -3.77259 | 39.14376 | 15511 ft | 323 kts | 316° |
| 2026-04-10 07:58 | -3.75685 | 39.12754 | 15950 ft | 326 kts | 316° |
| 2026-04-10 07:58 | -3.74108 | 39.11128 | 16487 ft | 325 kts | 316° |
| 2026-04-10 07:58 | -3.72530 | 39.09501 | 16965 ft | 327 kts | 316° |
| 2026-04-10 07:58 | -3.70938 | 39.07861 | 17393 ft | 330 kts | 316° |
| 2026-04-10 07:59 | -3.69330 | 39.06204 | 17842 ft | 332 kts | 316° |
| 2026-04-10 07:59 | -3.67711 | 39.04536 | 18268 ft | 335 kts | 316° |
| 2026-04-10 07:59 | -3.66077 | 39.02853 | 18637 ft | 338 kts | 316° |
| 2026-04-10 07:59 | -3.64453 | 39.01180 | 19018 ft | 340 kts | 316° |
| 2026-04-10 08:00 | -3.62781 | 38.99458 | 19428 ft | 341 kts | 317° |
| 2026-04-10 08:00 | -3.61147 | 38.97773 | 19810 ft | 343 kts | 317° |
| 2026-04-10 08:00 | -3.59480 | 38.96056 | 20193 ft | 345 kts | 317° |
| 2026-04-10 08:00 | -3.57803 | 38.94329 | 20558 ft | 347 kts | 317° |
| 2026-04-10 08:01 | -3.56116 | 38.92591 | 20945 ft | 349 kts | 317° |
| 2026-04-10 08:01 | -3.54418 | 38.90843 | 21290 ft | 351 kts | 317° |
| 2026-04-10 08:01 | -3.52707 | 38.89081 | 21647 ft | 354 kts | 317° |
| 2026-04-10 08:01 | -3.51042 | 38.87366 | 22018 ft | 355 kts | 317° |
| 2026-04-10 08:02 | -3.49313 | 38.85585 | 22380 ft | 358 kts | 317° |
| 2026-04-10 08:02 | -3.47577 | 38.83794 | 22739 ft | 360 kts | 317° |
| 2026-04-10 08:02 | -3.45824 | 38.81984 | 23097 ft | 363 kts | 317° |
| 2026-04-10 08:02 | -3.44066 | 38.80168 | 23437 ft | 365 kts | 317° |
| 2026-04-10 08:03 | -3.42293 | 38.78335 | 23758 ft | 367 kts | 317° |
| 2026-04-10 08:03 | -3.40512 | 38.76494 | 24065 ft | 369 kts | 317° |
| 2026-04-10 08:03 | -3.38726 | 38.74648 | 24399 ft | 369 kts | 317° |
| 2026-04-10 08:03 | -3.36935 | 38.72797 | 24711 ft | 371 kts | 317° |
| 2026-04-10 08:04 | -3.35137 | 38.70939 | 25013 ft | 372 kts | 317° |
| 2026-04-10 08:04 | -3.33338 | 38.69081 | 25320 ft | 373 kts | 316° |
| 2026-04-10 08:04 | -3.31529 | 38.67213 | 25627 ft | 374 kts | 317° |
| 2026-04-10 08:05 | -3.27905 | 38.63469 | 26296 ft | 374 kts | 316° |
| 2026-04-10 08:05 | -3.26090 | 38.61595 | 26601 ft | 375 kts | 316° |
| 2026-04-10 08:05 | -3.24272 | 38.59718 | 26878 ft | 377 kts | 317° |
| 2026-04-10 08:05 | -3.22443 | 38.57830 | 27152 ft | 378 kts | 316° |
| 2026-04-10 08:06 | -3.20609 | 38.55936 | 27443 ft | 379 kts | 317° |
| 2026-04-10 08:06 | -3.18769 | 38.54037 | 27718 ft | 381 kts | 316° |
| 2026-04-10 08:06 | -3.16925 | 38.52133 | 27997 ft | 382 kts | 316° |
| 2026-04-10 08:06 | -3.15072 | 38.50219 | 28276 ft | 383 kts | 316° |
| 2026-04-10 08:07 | -3.13216 | 38.48304 | 28545 ft | 384 kts | 316° |
| 2026-04-10 08:07 | -3.11377 | 38.46406 | 28807 ft | 386 kts | 316° |
| 2026-04-10 08:07 | -3.09508 | 38.44477 | 29075 ft | 387 kts | 316° |
| 2026-04-10 08:07 | -3.07631 | 38.42539 | 29328 ft | 388 kts | 316° |
| 2026-04-10 08:08 | -3.05744 | 38.40592 | 29577 ft | 390 kts | 316° |
| 2026-04-10 08:08 | -3.03853 | 38.38640 | 29816 ft | 391 kts | 316° |
| 2026-04-10 08:08 | -3.01960 | 38.36686 | 30079 ft | 392 kts | 316° |
| 2026-04-10 08:08 | -3.00057 | 38.34723 | 30309 ft | 393 kts | 316° |
| 2026-04-10 08:09 | -2.98142 | 38.32748 | 30424 ft | 397 kts | 316° |
| 2026-04-10 08:09 | -2.96213 | 38.30758 | 30583 ft | 399 kts | 316° |
| 2026-04-10 08:09 | -2.94276 | 38.28759 | 30767 ft | 401 kts | 316° |
| 2026-04-10 08:09 | -2.92331 | 38.26752 | 30954 ft | 403 kts | 316° |
| 2026-04-10 08:10 | -2.91037 | 38.25418 | 31048 ft | 404 kts | 315° |
| 2026-04-10 08:10 | -2.89076 | 38.23394 | 31229 ft | 406 kts | 316° |
| 2026-04-10 08:10 | -2.87102 | 38.21358 | 31390 ft | 408 kts | 315° |
| 2026-04-10 08:10 | -2.85123 | 38.19317 | 31567 ft | 409 kts | 315° |
| 2026-04-10 08:11 | -2.83137 | 38.17269 | 31741 ft | 411 kts | 315° |
| 2026-04-10 08:11 | -2.81139 | 38.15208 | 31899 ft | 413 kts | 315° |
| 2026-04-10 08:11 | -2.79137 | 38.13143 | 32044 ft | 415 kts | 315° |
| 2026-04-10 08:12 | -2.75109 | 38.08990 | 32091 ft | 416 kts | 316° |
| 2026-04-10 08:12 | -2.71080 | 38.04834 | 32090 ft | 416 kts | 316° |
| 2026-04-10 08:13 | -2.67060 | 38.00688 | 32078 ft | 415 kts | 315° |
| 2026-04-10 08:13 | -2.63036 | 37.96540 | 32093 ft | 415 kts | 316° |
| 2026-04-10 08:14 | -2.59020 | 37.92399 | 32100 ft | 415 kts | 316° |
| 2026-04-10 08:14 | -2.55023 | 37.88280 | 32107 ft | 415 kts | 316° |
| 2026-04-10 08:15 | -2.51005 | 37.84139 | 32091 ft | 415 kts | 316° |
| 2026-04-10 08:15 | -2.46989 | 37.80001 | 32098 ft | 414 kts | 317° |
| 2026-04-10 08:16 | -2.42977 | 37.75866 | 32114 ft | 414 kts | 316° |
| 2026-04-10 08:16 | -2.38957 | 37.71727 | 32114 ft | 415 kts | 316° |
| 2026-04-10 08:17 | -2.34935 | 37.67582 | 32116 ft | 416 kts | 316° |
| 2026-04-10 08:17 | -2.30906 | 37.63431 | 32106 ft | 416 kts | 316° |
| 2026-04-10 08:18 | -2.26879 | 37.59283 | 32113 ft | 415 kts | 316° |
| 2026-04-10 08:18 | -2.22851 | 37.55135 | 32121 ft | 415 kts | 316° |
| 2026-04-10 08:19 | -2.18824 | 37.50987 | 32120 ft | 415 kts | 316° |
| 2026-04-10 08:19 | -2.14797 | 37.46840 | 32127 ft | 415 kts | 316° |
| 2026-04-10 08:20 | -2.10773 | 37.42695 | 32135 ft | 416 kts | 315° |
| 2026-04-10 08:20 | -2.06780 | 37.38510 | 32132 ft | 416 kts | 315° |
| 2026-04-10 08:21 | -2.02609 | 37.34572 | 32143 ft | 414 kts | 324° |
| 2026-04-10 08:21 | -1.97967 | 37.31186 | 32156 ft | 413 kts | 327° |
| 2026-04-10 08:22 | -1.93237 | 37.27917 | 32162 ft | 413 kts | 327° |
| 2026-04-10 08:22 | -1.88492 | 37.24666 | 32158 ft | 413 kts | 327° |
| 2026-04-10 08:23 | -1.83752 | 37.21403 | 32163 ft | 413 kts | 327° |
| 2026-04-10 08:23 | -1.79014 | 37.18132 | 32171 ft | 414 kts | 327° |
| 2026-04-10 08:24 | -1.74280 | 37.14858 | 32179 ft | 413 kts | 327° |
| 2026-04-10 08:24 | -1.69551 | 37.11589 | 32179 ft | 413 kts | 327° |
| 2026-04-10 08:25 | -1.64825 | 37.08323 | 32174 ft | 413 kts | 327° |
| 2026-04-10 08:25 | -1.60098 | 37.05056 | 32179 ft | 413 kts | 327° |
| 2026-04-10 08:26 | -1.55369 | 37.01788 | 32179 ft | 413 kts | 327° |
| 2026-04-10 08:26 | -1.50646 | 36.98525 | 32196 ft | 413 kts | 327° |
| 2026-04-10 08:27 | -1.45954 | 36.95283 | 32181 ft | 412 kts | 327° |
| 2026-04-10 08:27 | -1.41245 | 36.92029 | 32198 ft | 412 kts | 327° |
| 2026-04-10 08:28 | -1.36537 | 36.88777 | 32199 ft | 411 kts | 327° |
| 2026-04-10 08:28 | -1.34182 | 36.87150 | 32358 ft | 412 kts | 327° |
| 2026-04-10 08:28 | -1.31826 | 36.85523 | 32358 ft | 412 kts | 327° |
| 2026-04-10 08:29 | -1.27115 | 36.82268 | 32342 ft | 411 kts | 327° |
| 2026-04-10 08:29 | -1.22403 | 36.79014 | 32335 ft | 411 kts | 327° |
| 2026-04-10 08:30 | -1.17699 | 36.75764 | 32306 ft | 411 kts | 327° |
| 2026-04-10 08:30 | -1.13003 | 36.72521 | 32269 ft | 410 kts | 328° |
| 2026-04-10 08:31 | -1.08310 | 36.69279 | 32236 ft | 410 kts | 328° |
| 2026-04-10 08:31 | -1.03609 | 36.66034 | 32198 ft | 410 kts | 327° |
| 2026-04-10 08:32 | -0.98916 | 36.62792 | 32171 ft | 410 kts | 328° |
| 2026-04-10 08:32 | -0.94230 | 36.59557 | 32179 ft | 409 kts | 328° |
| 2026-04-10 08:33 | -0.89546 | 36.56324 | 32176 ft | 410 kts | 327° |
| 2026-04-10 08:33 | -0.84881 | 36.53103 | 32171 ft | 410 kts | 327° |
| 2026-04-10 08:34 | -0.80192 | 36.49863 | 32176 ft | 409 kts | 327° |
| 2026-04-10 08:34 | -0.75500 | 36.46622 | 32175 ft | 410 kts | 327° |
| 2026-04-10 08:35 | -0.70797 | 36.43375 | 32158 ft | 411 kts | 327° |
| 2026-04-10 08:35 | -0.66096 | 36.40129 | 32173 ft | 410 kts | 327° |
| 2026-04-10 08:36 | -0.61395 | 36.36883 | 32164 ft | 410 kts | 327° |
| 2026-04-10 08:36 | -0.56692 | 36.33637 | 32156 ft | 412 kts | 327° |
| 2026-04-10 08:37 | -0.51980 | 36.30383 | 32136 ft | 412 kts | 327° |
| 2026-04-10 08:37 | -0.47265 | 36.27128 | 32130 ft | 412 kts | 327° |
| 2026-04-10 08:38 | -0.42556 | 36.23876 | 32147 ft | 411 kts | 327° |
| 2026-04-10 08:38 | -0.37848 | 36.20626 | 32138 ft | 411 kts | 327° |
| 2026-04-10 08:39 | -0.33179 | 36.17403 | 32120 ft | 411 kts | 327° |
| 2026-04-10 08:39 | -0.28229 | 36.14598 | 32118 ft | 409 kts | 336° |
| 2026-04-10 08:40 | -0.23047 | 36.12247 | 32106 ft | 408 kts | 338° |
| 2026-04-10 08:40 | -0.17838 | 36.09986 | 32118 ft | 408 kts | 338° |
| 2026-04-10 08:41 | -0.12624 | 36.07729 | 32098 ft | 408 kts | 338° |
| 2026-04-10 08:41 | -0.07415 | 36.05462 | 32116 ft | 408 kts | 338° |
| 2026-04-10 08:42 | -0.02208 | 36.03189 | 32110 ft | 408 kts | 338° |
| 2026-04-10 08:42 | 0.03001 | 36.00914 | 32079 ft | 409 kts | 337° |
| 2026-04-10 08:43 | 0.08218 | 35.98635 | 32081 ft | 410 kts | 338° |
| 2026-04-10 08:43 | 0.13440 | 35.96354 | 32063 ft | 409 kts | 337° |
| 2026-04-10 08:44 | 0.18627 | 35.94088 | 32064 ft | 409 kts | 338° |
| 2026-04-10 08:44 | 0.23845 | 35.91809 | 32064 ft | 409 kts | 338° |
| 2026-04-10 08:45 | 0.29063 | 35.89530 | 32051 ft | 409 kts | 338° |
| 2026-04-10 08:45 | 0.34282 | 35.87251 | 32045 ft | 409 kts | 337° |
| 2026-04-10 08:46 | 0.39494 | 35.84975 | 32050 ft | 409 kts | 337° |
| 2026-04-10 08:46 | 0.44707 | 35.82698 | 32036 ft | 409 kts | 337° |
| 2026-04-10 08:47 | 0.49921 | 35.80420 | 32021 ft | 409 kts | 337° |
| 2026-04-10 08:47 | 0.55137 | 35.78142 | 32038 ft | 409 kts | 337° |
| 2026-04-10 08:48 | 0.60348 | 35.75866 | 32038 ft | 409 kts | 337° |
| 2026-04-10 08:48 | 0.65557 | 35.73590 | 32032 ft | 408 kts | 337° |
| 2026-04-10 08:49 | 0.70756 | 35.71319 | 32030 ft | 408 kts | 337° |
| 2026-04-10 08:49 | 0.75956 | 35.69048 | 32043 ft | 408 kts | 337° |
| 2026-04-10 08:50 | 0.81156 | 35.66776 | 32025 ft | 408 kts | 337° |
| 2026-04-10 08:50 | 0.86349 | 35.64508 | 32040 ft | 408 kts | 337° |
| 2026-04-10 08:51 | 0.91508 | 35.62254 | 32061 ft | 407 kts | 337° |
| 2026-04-10 08:51 | 0.96701 | 35.59986 | 32047 ft | 407 kts | 338° |
| 2026-04-10 08:52 | 1.01894 | 35.57717 | 32068 ft | 407 kts | 338° |
| 2026-04-10 08:52 | 1.07082 | 35.55450 | 32055 ft | 407 kts | 338° |
| 2026-04-10 08:53 | 1.12273 | 35.53182 | 32057 ft | 407 kts | 338° |
| 2026-04-10 08:53 | 1.17479 | 35.50964 | 32072 ft | 407 kts | 339° |
| 2026-04-10 08:54 | 1.22710 | 35.48778 | 32053 ft | 406 kts | 339° |
| 2026-04-10 08:54 | 1.27911 | 35.46605 | 32057 ft | 405 kts | 338° |
| 2026-04-10 08:55 | 1.33131 | 35.44420 | 31988 ft | 417 kts | 339° |
| 2026-04-10 08:55 | 1.38559 | 35.42145 | 31922 ft | 430 kts | 338° |
| 2026-04-10 08:56 | 1.44134 | 35.39806 | 32048 ft | 440 kts | 338° |
| 2026-04-10 08:56 | 1.49857 | 35.37405 | 32023 ft | 453 kts | 338° |
| 2026-04-10 08:57 | 1.55749 | 35.34931 | 32027 ft | 465 kts | 339° |
| 2026-04-10 08:57 | 1.61769 | 35.32405 | 32027 ft | 472 kts | 338° |
| 2026-04-10 08:58 | 1.66808 | 35.30289 | 31998 ft | 473 kts | 338° |
| 2026-04-10 08:58 | 1.72865 | 35.27745 | 31995 ft | 472 kts | 338° |
| 2026-04-10 08:59 | 1.78933 | 35.25199 | 32005 ft | 472 kts | 339° |
| 2026-04-10 08:59 | 1.84983 | 35.22661 | 31994 ft | 471 kts | 338° |
| 2026-04-10 09:00 | 1.91030 | 35.20122 | 32001 ft | 471 kts | 338° |
| 2026-04-10 09:00 | 1.97072 | 35.17586 | 32000 ft | 470 kts | 338° |
| 2026-04-10 09:01 | 2.03114 | 35.15049 | 32000 ft | 471 kts | 338° |
| 2026-04-10 09:01 | 2.09144 | 35.12517 | 32009 ft | 470 kts | 338° |
| 2026-04-10 09:02 | 2.15187 | 35.09979 | 31993 ft | 471 kts | 338° |
| 2026-04-10 09:02 | 2.21230 | 35.07442 | 32006 ft | 471 kts | 338° |
| 2026-04-10 09:03 | 2.27275 | 35.04903 | 32003 ft | 471 kts | 338° |
| 2026-04-10 09:03 | 2.33276 | 35.02383 | 32011 ft | 471 kts | 338° |
| 2026-04-10 09:04 | 2.42342 | 34.98575 | 32008 ft | 471 kts | 338° |
| 2026-04-10 09:04 | 2.48329 | 34.95882 | 32008 ft | 473 kts | 334° |
| 2026-04-10 09:05 | 2.54203 | 34.92920 | 32003 ft | 472 kts | 333° |
| 2026-04-10 09:05 | 2.60046 | 34.89931 | 32005 ft | 472 kts | 334° |
| 2026-04-10 09:06 | 2.65909 | 34.86965 | 32000 ft | 471 kts | 334° |
| 2026-04-10 09:06 | 2.71770 | 34.84024 | 32002 ft | 471 kts | 334° |
| 2026-04-10 09:07 | 2.77644 | 34.81083 | 32006 ft | 472 kts | 334° |
| 2026-04-10 09:07 | 2.83503 | 34.78148 | 32003 ft | 471 kts | 334° |
| 2026-04-10 09:08 | 2.89379 | 34.75203 | 31997 ft | 472 kts | 334° |
| 2026-04-10 09:08 | 2.95248 | 34.72260 | 32000 ft | 471 kts | 334° |
| 2026-04-10 09:09 | 3.01115 | 34.69318 | 31987 ft | 472 kts | 334° |
| 2026-04-10 09:09 | 3.06941 | 34.66396 | 31984 ft | 471 kts | 334° |
| 2026-04-10 09:10 | 3.12796 | 34.63460 | 32003 ft | 472 kts | 334° |
| 2026-04-10 09:10 | 3.18666 | 34.60516 | 31999 ft | 471 kts | 334° |
| 2026-04-10 09:11 | 3.24528 | 34.57575 | 31996 ft | 472 kts | 334° |
| 2026-04-10 09:11 | 3.30400 | 34.54629 | 31995 ft | 472 kts | 334° |
| 2026-04-10 09:12 | 3.36265 | 34.51686 | 31997 ft | 471 kts | 334° |
| 2026-04-10 09:12 | 3.42132 | 34.48742 | 31999 ft | 472 kts | 334° |
| 2026-04-10 09:13 | 3.47992 | 34.45799 | 32002 ft | 471 kts | 335° |
| 2026-04-10 09:13 | 3.53845 | 34.42861 | 32000 ft | 471 kts | 334° |
| 2026-04-10 09:14 | 3.59699 | 34.39922 | 32010 ft | 469 kts | 334° |
| 2026-04-10 09:14 | 3.65538 | 34.36991 | 32005 ft | 471 kts | 334° |
| 2026-04-10 09:15 | 3.71395 | 34.34049 | 32008 ft | 470 kts | 335° |
| 2026-04-10 09:15 | 3.77237 | 34.31114 | 32012 ft | 470 kts | 334° |
| 2026-04-10 09:16 | 3.83093 | 34.28173 | 32004 ft | 471 kts | 335° |
| 2026-04-10 09:16 | 3.88896 | 34.25257 | 32005 ft | 470 kts | 335° |
| 2026-04-10 09:17 | 3.94745 | 34.22318 | 31990 ft | 471 kts | 335° |
| 2026-04-10 09:17 | 4.00592 | 34.19365 | 31985 ft | 470 kts | 334° |
| 2026-04-10 09:18 | 4.06380 | 34.16261 | 31986 ft | 473 kts | 334° |
| 2026-04-10 09:18 | 4.12149 | 34.13089 | 31986 ft | 472 kts | 333° |
| 2026-04-10 09:19 | 4.17889 | 34.09939 | 31977 ft | 470 kts | 333° |
| 2026-04-10 09:19 | 4.23640 | 34.06799 | 31977 ft | 471 kts | 334° |
| 2026-04-10 09:20 | 4.29381 | 34.03671 | 31980 ft | 470 kts | 333° |
| 2026-04-10 09:20 | 4.35132 | 34.00538 | 31975 ft | 471 kts | 334° |
| 2026-04-10 09:21 | 4.40881 | 33.97404 | 31958 ft | 469 kts | 333° |
| 2026-04-10 09:21 | 4.46611 | 33.94280 | 31967 ft | 469 kts | 333° |
| 2026-04-10 09:22 | 4.52339 | 33.91156 | 31965 ft | 468 kts | 332° |
| 2026-04-10 09:22 | 4.58044 | 33.88044 | 31954 ft | 466 kts | 333° |
| 2026-04-10 09:23 | 4.63753 | 33.84931 | 31951 ft | 469 kts | 333° |
| 2026-04-10 09:23 | 4.69474 | 33.81809 | 31938 ft | 467 kts | 334° |
| 2026-04-10 09:24 | 4.75177 | 33.78697 | 31930 ft | 467 kts | 333° |
| 2026-04-10 09:24 | 4.80866 | 33.75593 | 31931 ft | 468 kts | 333° |
| 2026-04-10 09:25 | 4.86570 | 33.72478 | 31922 ft | 466 kts | 333° |
| 2026-04-10 09:25 | 4.92280 | 33.69361 | 31924 ft | 468 kts | 333° |
| 2026-04-10 09:26 | 4.97996 | 33.66239 | 31902 ft | 466 kts | 333° |
| 2026-04-10 09:26 | 5.03693 | 33.63127 | 31917 ft | 468 kts | 332° |
| 2026-04-10 09:27 | 5.09418 | 33.60000 | 31908 ft | 468 kts | 333° |
| 2026-04-10 09:27 | 5.15092 | 33.56899 | 31909 ft | 463 kts | 333° |
| 2026-04-10 09:28 | 5.20754 | 33.53804 | 31906 ft | 465 kts | 333° |
| 2026-04-10 09:28 | 5.26424 | 33.50705 | 31903 ft | 462 kts | 333° |
| 2026-04-10 09:29 | 5.32072 | 33.47616 | 31908 ft | 463 kts | 333° |
| 2026-04-10 09:29 | 5.37738 | 33.44517 | 31905 ft | 464 kts | 333° |
| 2026-04-10 09:30 | 5.43353 | 33.41445 | 31906 ft | 462 kts | 333° |
| 2026-04-10 09:30 | 5.49025 | 33.38343 | 31905 ft | 466 kts | 332° |
| 2026-04-10 09:31 | 5.54713 | 33.35229 | 31901 ft | 464 kts | 333° |
| 2026-04-10 09:31 | 5.60385 | 33.32124 | 31900 ft | 464 kts | 332° |
| 2026-04-10 09:32 | 5.66074 | 33.29009 | 31900 ft | 466 kts | 333° |
| 2026-04-10 09:32 | 5.71736 | 33.25909 | 31903 ft | 463 kts | 333° |
| 2026-04-10 09:33 | 5.77412 | 33.22800 | 31906 ft | 466 kts | 333° |
| 2026-04-10 09:33 | 5.83107 | 33.19680 | 31906 ft | 465 kts | 333° |
| 2026-04-10 09:34 | 5.88790 | 33.16566 | 31904 ft | 465 kts | 332° |
| 2026-04-10 09:34 | 5.94489 | 33.13442 | 31902 ft | 467 kts | 333° |
| 2026-04-10 09:35 | 6.00185 | 33.10318 | 31905 ft | 466 kts | 333° |
| 2026-04-10 09:35 | 6.05875 | 33.07198 | 31907 ft | 467 kts | 333° |
| 2026-04-10 09:36 | 6.11543 | 33.04089 | 31906 ft | 466 kts | 333° |
| 2026-04-10 09:36 | 6.17218 | 33.00975 | 31908 ft | 465 kts | 333° |
| 2026-04-10 09:37 | 6.22916 | 32.97849 | 31908 ft | 467 kts | 333° |
| 2026-04-10 09:37 | 6.28603 | 32.94726 | 31907 ft | 464 kts | 333° |
| 2026-04-10 09:38 | 6.34287 | 32.91606 | 31912 ft | 467 kts | 333° |
| 2026-04-10 09:38 | 6.39988 | 32.88476 | 31899 ft | 467 kts | 332° |
| 2026-04-10 09:39 | 6.45693 | 32.85342 | 31917 ft | 468 kts | 333° |
| 2026-04-10 09:39 | 6.51430 | 32.82189 | 31917 ft | 470 kts | 332° |
| 2026-04-10 09:40 | 6.57151 | 32.79044 | 31925 ft | 468 kts | 332° |
| 2026-04-10 09:40 | 6.62871 | 32.75899 | 31923 ft | 469 kts | 332° |
| 2026-04-10 09:41 | 6.68597 | 32.72750 | 31933 ft | 469 kts | 333° |
| 2026-04-10 09:41 | 6.74310 | 32.69607 | 31932 ft | 468 kts | 332° |
| 2026-04-10 09:42 | 6.80041 | 32.66455 | 31939 ft | 469 kts | 332° |
| 2026-04-10 09:42 | 6.85764 | 32.63304 | 31939 ft | 468 kts | 332° |
| 2026-04-10 09:43 | 6.91480 | 32.60158 | 31941 ft | 469 kts | 332° |
| 2026-04-10 09:43 | 6.97170 | 32.57024 | 31948 ft | 469 kts | 333° |
| 2026-04-10 09:44 | 7.02883 | 32.53877 | 31948 ft | 468 kts | 332° |
| 2026-04-10 09:44 | 7.08601 | 32.50727 | 31953 ft | 469 kts | 332° |
| 2026-04-10 09:45 | 7.14337 | 32.47565 | 31950 ft | 470 kts | 332° |
| 2026-04-10 09:45 | 7.20072 | 32.44404 | 31956 ft | 470 kts | 332° |
| 2026-04-10 09:46 | 7.24844 | 32.41772 | 31955 ft | 471 kts | 332° |
| 2026-04-10 09:46 | 7.30586 | 32.38605 | 31955 ft | 470 kts | 332° |
| 2026-04-10 09:47 | 7.36324 | 32.35439 | 31957 ft | 470 kts | 332° |
| 2026-04-10 09:47 | 7.42075 | 32.32264 | 31958 ft | 471 kts | 332° |
| 2026-04-10 09:48 | 7.47832 | 32.29086 | 31956 ft | 472 kts | 332° |
| 2026-04-10 09:48 | 7.53596 | 32.25903 | 31954 ft | 472 kts | 332° |
| 2026-04-10 09:49 | 7.59363 | 32.22717 | 31956 ft | 472 kts | 332° |
| 2026-04-10 09:49 | 7.65124 | 32.19533 | 31956 ft | 472 kts | 332° |
| 2026-04-10 09:50 | 7.70889 | 32.16347 | 31952 ft | 472 kts | 332° |
| 2026-04-10 09:50 | 7.76603 | 32.13187 | 31946 ft | 470 kts | 332° |
| 2026-04-10 09:51 | 7.82336 | 32.10016 | 31947 ft | 470 kts | 332° |
| 2026-04-10 09:51 | 7.88074 | 32.06841 | 31937 ft | 470 kts | 332° |
| 2026-04-10 09:52 | 7.93800 | 32.03672 | 31938 ft | 470 kts | 332° |
| 2026-04-10 09:52 | 7.99534 | 32.00498 | 31931 ft | 470 kts | 332° |
| 2026-04-10 09:53 | 8.05272 | 31.97319 | 31936 ft | 470 kts | 332° |
| 2026-04-10 09:53 | 8.11008 | 31.94142 | 31931 ft | 471 kts | 332° |
| 2026-04-10 09:54 | 8.16753 | 31.90958 | 31925 ft | 471 kts | 332° |
| 2026-04-10 09:54 | 8.22492 | 31.87776 | 31925 ft | 471 kts | 332° |
| 2026-04-10 09:55 | 8.28237 | 31.84590 | 31920 ft | 471 kts | 332° |
| 2026-04-10 09:55 | 8.33976 | 31.81407 | 31919 ft | 471 kts | 332° |
| 2026-04-10 09:56 | 8.39718 | 31.78221 | 31914 ft | 471 kts | 332° |
| 2026-04-10 09:56 | 8.45463 | 31.75031 | 31914 ft | 471 kts | 332° |
| 2026-04-10 09:57 | 8.51213 | 31.71838 | 31912 ft | 471 kts | 332° |
| 2026-04-10 09:57 | 8.56918 | 31.68669 | 31911 ft | 471 kts | 332° |
| 2026-04-10 09:58 | 8.62665 | 31.65475 | 31911 ft | 471 kts | 332° |
| 2026-04-10 09:58 | 8.68409 | 31.62283 | 31905 ft | 471 kts | 332° |
| 2026-04-10 09:59 | 8.74157 | 31.59087 | 31907 ft | 470 kts | 332° |
| 2026-04-10 09:59 | 8.79876 | 31.55906 | 31906 ft | 468 kts | 332° |
| 2026-04-10 10:00 | 8.85587 | 31.52728 | 31905 ft | 469 kts | 332° |
| 2026-04-10 10:00 | 8.91297 | 31.49550 | 31905 ft | 467 kts | 332° |
| 2026-04-10 10:01 | 8.96977 | 31.46388 | 31903 ft | 465 kts | 332° |
| 2026-04-10 10:01 | 9.02663 | 31.43221 | 31903 ft | 467 kts | 332° |
| 2026-04-10 10:02 | 9.08356 | 31.40049 | 31904 ft | 466 kts | 332° |
| 2026-04-10 10:02 | 9.13981 | 31.36914 | 31904 ft | 464 kts | 331° |
| 2026-04-10 10:03 | 9.19658 | 31.33749 | 31903 ft | 466 kts | 331° |
| 2026-04-10 10:03 | 9.25330 | 31.30585 | 31903 ft | 464 kts | 331° |
| 2026-04-10 10:04 | 9.33819 | 31.25848 | 31906 ft | 466 kts | 332° |
| 2026-04-10 10:05 | 9.39498 | 31.22678 | 31902 ft | 464 kts | 332° |
| 2026-04-10 10:05 | 9.45149 | 31.19521 | 31902 ft | 465 kts | 332° |
| 2026-04-10 10:06 | 9.50829 | 31.16348 | 31903 ft | 466 kts | 332° |
| 2026-04-10 10:06 | 9.56498 | 31.13179 | 31904 ft | 464 kts | 331° |
| 2026-04-10 10:07 | 9.62159 | 31.10014 | 31904 ft | 466 kts | 332° |
| 2026-04-10 10:07 | 9.67808 | 31.06854 | 31904 ft | 466 kts | 332° |
| 2026-04-10 10:08 | 9.73472 | 31.03685 | 31906 ft | 465 kts | 331° |
| 2026-04-10 10:08 | 9.79155 | 31.00504 | 31908 ft | 468 kts | 331° |
| 2026-04-10 10:09 | 9.84856 | 30.97311 | 31902 ft | 466 kts | 331° |
| 2026-04-10 10:09 | 9.90531 | 30.94131 | 31910 ft | 467 kts | 331° |
| 2026-04-10 10:10 | 9.96237 | 30.90933 | 31913 ft | 469 kts | 331° |
| 2026-04-10 10:10 | 10.01933 | 30.87737 | 31913 ft | 467 kts | 331° |
| 2026-04-10 10:11 | 10.07622 | 30.84543 | 31915 ft | 468 kts | 330° |
| 2026-04-10 10:11 | 10.13326 | 30.81339 | 31920 ft | 468 kts | 330° |
| 2026-04-10 10:12 | 10.19007 | 30.78146 | 31917 ft | 466 kts | 330° |
| 2026-04-10 10:12 | 10.24690 | 30.74951 | 31916 ft | 468 kts | 330° |
| 2026-04-10 10:13 | 10.30348 | 30.71770 | 31916 ft | 466 kts | 330° |
| 2026-04-10 10:13 | 10.36014 | 30.68583 | 32031 ft | 468 kts | 330° |
| 2026-04-10 10:13 | 10.38876 | 30.66972 | 32154 ft | 471 kts | 330° |
| 2026-04-10 10:14 | 10.41749 | 30.65355 | 32348 ft | 472 kts | 330° |
| 2026-04-10 10:14 | 10.44623 | 30.63737 | 32621 ft | 472 kts | 330° |
| 2026-04-10 10:14 | 10.47488 | 30.62125 | 33007 ft | 468 kts | 330° |
| 2026-04-10 10:14 | 10.50340 | 30.60521 | 33214 ft | 470 kts | 330° |
| 2026-04-10 10:15 | 10.53198 | 30.58912 | 33431 ft | 470 kts | 330° |
| 2026-04-10 10:15 | 10.56062 | 30.57299 | 33656 ft | 470 kts | 329° |
| 2026-04-10 10:15 | 10.58924 | 30.55687 | 33884 ft | 470 kts | 329° |
| 2026-04-10 10:16 | 10.64632 | 30.52472 | 33915 ft | 468 kts | 330° |
| 2026-04-10 10:16 | 10.70333 | 30.49259 | 33919 ft | 469 kts | 330° |
| 2026-04-10 10:17 | 10.76041 | 30.46040 | 33921 ft | 469 kts | 329° |
| 2026-04-10 10:17 | 10.81747 | 30.42822 | 33923 ft | 468 kts | 329° |
| 2026-04-10 10:18 | 10.87446 | 30.39605 | 33921 ft | 468 kts | 329° |
| 2026-04-10 10:18 | 10.93147 | 30.36387 | 33920 ft | 469 kts | 329° |
| 2026-04-10 10:19 | 10.98854 | 30.33163 | 33922 ft | 469 kts | 329° |
| 2026-04-10 10:19 | 11.04553 | 30.29943 | 33923 ft | 469 kts | 329° |
| 2026-04-10 10:20 | 11.10221 | 30.26739 | 33927 ft | 468 kts | 329° |
| 2026-04-10 10:20 | 11.15921 | 30.23514 | 33925 ft | 468 kts | 329° |
| 2026-04-10 10:21 | 11.21609 | 30.20296 | 33933 ft | 468 kts | 329° |
| 2026-04-10 10:21 | 11.27294 | 30.17077 | 33925 ft | 468 kts | 329° |
| 2026-04-10 10:22 | 11.32983 | 30.13855 | 33921 ft | 467 kts | 329° |
| 2026-04-10 10:22 | 11.38666 | 30.10635 | 33929 ft | 468 kts | 329° |
| 2026-04-10 10:23 | 11.44356 | 30.07409 | 33929 ft | 468 kts | 329° |
| 2026-04-10 10:23 | 11.50052 | 30.04179 | 33931 ft | 468 kts | 329° |
| 2026-04-10 10:24 | 11.55749 | 30.00946 | 33933 ft | 468 kts | 329° |
| 2026-04-10 10:24 | 11.61440 | 29.97715 | 33935 ft | 468 kts | 329° |
| 2026-04-10 10:25 | 11.67101 | 29.94500 | 33937 ft | 468 kts | 329° |
| 2026-04-10 10:25 | 11.72791 | 29.91267 | 33936 ft | 468 kts | 329° |
| 2026-04-10 10:26 | 11.78481 | 29.88033 | 33945 ft | 467 kts | 328° |
| 2026-04-10 10:26 | 11.84156 | 29.84805 | 33946 ft | 466 kts | 328° |
| 2026-04-10 10:27 | 11.89818 | 29.81583 | 33945 ft | 466 kts | 328° |
| 2026-04-10 10:27 | 11.95486 | 29.78356 | 33941 ft | 466 kts | 328° |
| 2026-04-10 10:28 | 12.01146 | 29.75132 | 33946 ft | 466 kts | 328° |
| 2026-04-10 10:28 | 12.06812 | 29.71903 | 33944 ft | 466 kts | 328° |
| 2026-04-10 10:29 | 12.12473 | 29.68675 | 33946 ft | 465 kts | 328° |
| 2026-04-10 10:29 | 12.18073 | 29.65482 | 33946 ft | 463 kts | 328° |
| 2026-04-10 10:30 | 12.23694 | 29.62274 | 33943 ft | 463 kts | 328° |
| 2026-04-10 10:30 | 12.29315 | 29.59064 | 33944 ft | 463 kts | 328° |
| 2026-04-10 10:31 | 12.34937 | 29.55852 | 33942 ft | 463 kts | 328° |
| 2026-04-10 10:31 | 12.40560 | 29.52639 | 33942 ft | 463 kts | 328° |
| 2026-04-10 10:32 | 12.46173 | 29.49429 | 33945 ft | 462 kts | 328° |
| 2026-04-10 10:32 | 12.51777 | 29.46224 | 33944 ft | 461 kts | 328° |
| 2026-04-10 10:33 | 12.57372 | 29.43020 | 33949 ft | 461 kts | 328° |
| 2026-04-10 10:33 | 12.62023 | 29.40357 | 33949 ft | 461 kts | 328° |
| 2026-04-10 10:34 | 12.68535 | 29.36625 | 33947 ft | 461 kts | 328° |
| 2026-04-10 10:34 | 12.73223 | 29.33938 | 33955 ft | 461 kts | 328° |
| 2026-04-10 10:35 | 12.78817 | 29.30730 | 33953 ft | 461 kts | 328° |
| 2026-04-10 10:35 | 12.84415 | 29.27518 | 33960 ft | 461 kts | 328° |
| 2026-04-10 10:36 | 12.89973 | 29.24327 | 33963 ft | 461 kts | 328° |
| 2026-04-10 10:36 | 12.95563 | 29.21116 | 33960 ft | 460 kts | 328° |
| 2026-04-10 10:37 | 13.01151 | 29.17905 | 33961 ft | 460 kts | 328° |
| 2026-04-10 10:37 | 13.06732 | 29.14696 | 33961 ft | 460 kts | 328° |
| 2026-04-10 10:38 | 13.12314 | 29.11484 | 33984 ft | 459 kts | 327° |
| 2026-04-10 10:38 | 13.17860 | 29.08294 | 33967 ft | 455 kts | 327° |
| 2026-04-10 10:39 | 13.23378 | 29.05116 | 33959 ft | 454 kts | 327° |
| 2026-04-10 10:39 | 13.28884 | 29.01942 | 33972 ft | 454 kts | 327° |
| 2026-04-10 10:40 | 13.34396 | 28.98764 | 33970 ft | 454 kts | 327° |
| 2026-04-10 10:40 | 13.39908 | 28.95585 | 33970 ft | 454 kts | 327° |
| 2026-04-10 10:41 | 13.45412 | 28.92408 | 33977 ft | 453 kts | 327° |
| 2026-04-10 10:41 | 13.50898 | 28.89242 | 33980 ft | 451 kts | 327° |
| 2026-04-10 10:42 | 13.56355 | 28.86090 | 33969 ft | 450 kts | 327° |
| 2026-04-10 10:42 | 13.61806 | 28.82938 | 33986 ft | 450 kts | 327° |
| 2026-04-10 10:43 | 13.67259 | 28.79784 | 33987 ft | 450 kts | 327° |
| 2026-04-10 10:43 | 13.72714 | 28.76627 | 33974 ft | 450 kts | 327° |
| 2026-04-10 10:44 | 13.78166 | 28.73471 | 33987 ft | 450 kts | 327° |
| 2026-04-10 10:44 | 13.83622 | 28.70311 | 33977 ft | 449 kts | 327° |
| 2026-04-10 10:45 | 13.89025 | 28.67179 | 33978 ft | 448 kts | 327° |
| 2026-04-10 10:45 | 13.94463 | 28.64026 | 33981 ft | 448 kts | 327° |
| 2026-04-10 10:46 | 13.99895 | 28.60874 | 33982 ft | 448 kts | 327° |
| 2026-04-10 10:46 | 14.05330 | 28.57718 | 33983 ft | 448 kts | 327° |
| 2026-04-10 10:47 | 14.10759 | 28.54566 | 33991 ft | 448 kts | 327° |
| 2026-04-10 10:47 | 14.16192 | 28.51408 | 33991 ft | 448 kts | 327° |
| 2026-04-10 10:48 | 14.21617 | 28.48254 | 33999 ft | 447 kts | 327° |
| 2026-04-10 10:48 | 14.27027 | 28.45106 | 33996 ft | 447 kts | 327° |
| 2026-04-10 10:49 | 14.32444 | 28.41953 | 34002 ft | 447 kts | 327° |
| 2026-04-10 10:49 | 14.37860 | 28.38797 | 33998 ft | 447 kts | 327° |
| 2026-04-10 10:50 | 14.43273 | 28.35643 | 33996 ft | 447 kts | 327° |
| 2026-04-10 10:50 | 14.48683 | 28.32488 | 34010 ft | 446 kts | 326° |
| 2026-04-10 10:51 | 14.54060 | 28.29351 | 34007 ft | 447 kts | 326° |
| 2026-04-10 10:51 | 14.59514 | 28.26167 | 34006 ft | 447 kts | 326° |
| 2026-04-10 10:52 | 14.64891 | 28.23027 | 34009 ft | 447 kts | 326° |
| 2026-04-10 10:52 | 14.70337 | 28.19843 | 34009 ft | 447 kts | 326° |
| 2026-04-10 10:53 | 14.75716 | 28.16698 | 34014 ft | 447 kts | 326° |
| 2026-04-10 10:53 | 14.81138 | 28.13524 | 34014 ft | 447 kts | 326° |
| 2026-04-10 10:54 | 14.86553 | 28.10353 | 34017 ft | 448 kts | 326° |
| 2026-04-10 10:54 | 14.91970 | 28.07179 | 34021 ft | 448 kts | 326° |
| 2026-04-10 10:55 | 14.97394 | 28.03998 | 34025 ft | 448 kts | 326° |
| 2026-04-10 10:55 | 15.02819 | 28.00815 | 34024 ft | 448 kts | 326° |
| 2026-04-10 10:56 | 15.08243 | 27.97631 | 34020 ft | 448 kts | 326° |
| 2026-04-10 10:56 | 15.13663 | 27.94448 | 34020 ft | 448 kts | 326° |
| 2026-04-10 10:57 | 15.19090 | 27.91259 | 34022 ft | 447 kts | 326° |
| 2026-04-10 10:57 | 15.24492 | 27.88083 | 34021 ft | 446 kts | 326° |
| 2026-04-10 10:58 | 15.29849 | 27.84930 | 34028 ft | 446 kts | 326° |
| 2026-04-10 10:58 | 15.35240 | 27.81755 | 34027 ft | 446 kts | 326° |
| 2026-04-10 10:59 | 15.40631 | 27.78579 | 34030 ft | 446 kts | 326° |
| 2026-04-10 10:59 | 15.46031 | 27.75396 | 34031 ft | 446 kts | 326° |
| 2026-04-10 11:00 | 15.51428 | 27.72212 | 34034 ft | 446 kts | 325° |
| 2026-04-10 11:00 | 15.56816 | 27.69033 | 34037 ft | 445 kts | 325° |
| 2026-04-10 11:01 | 15.62194 | 27.65856 | 34035 ft | 445 kts | 325° |
| 2026-04-10 11:01 | 15.67575 | 27.62676 | 34036 ft | 445 kts | 325° |
| 2026-04-10 11:02 | 15.72959 | 27.59493 | 34036 ft | 445 kts | 325° |
| 2026-04-10 11:02 | 15.78334 | 27.56313 | 34040 ft | 445 kts | 325° |
| 2026-04-10 11:03 | 15.83713 | 27.53129 | 34038 ft | 445 kts | 325° |
| 2026-04-10 11:03 | 15.89089 | 27.49944 | 34044 ft | 444 kts | 325° |
| 2026-04-10 11:04 | 15.94419 | 27.46785 | 34053 ft | 444 kts | 325° |
| 2026-04-10 11:04 | 15.99783 | 27.43603 | 34046 ft | 444 kts | 325° |
| 2026-04-10 11:05 | 16.07829 | 27.38827 | 34048 ft | 444 kts | 325° |
| 2026-04-10 11:05 | 16.13188 | 27.35644 | 34054 ft | 444 kts | 325° |
| 2026-04-10 11:06 | 16.18543 | 27.32460 | 34047 ft | 444 kts | 325° |
| 2026-04-10 11:06 | 16.23900 | 27.29273 | 34051 ft | 444 kts | 325° |
| 2026-04-10 11:07 | 16.29262 | 27.26082 | 34056 ft | 444 kts | 325° |
| 2026-04-10 11:07 | 16.34624 | 27.22889 | 34049 ft | 444 kts | 325° |
| 2026-04-10 11:08 | 16.39981 | 27.19696 | 34055 ft | 444 kts | 325° |
| 2026-04-10 11:08 | 16.45338 | 27.16501 | 34046 ft | 444 kts | 325° |
| 2026-04-10 11:09 | 16.50669 | 27.13320 | 34053 ft | 444 kts | 325° |
| 2026-04-10 11:09 | 16.56039 | 27.10114 | 34053 ft | 445 kts | 324° |
| 2026-04-10 11:10 | 16.61413 | 27.06903 | 34060 ft | 446 kts | 324° |
| 2026-04-10 11:10 | 16.66793 | 27.03686 | 34057 ft | 446 kts | 324° |
| 2026-04-10 11:11 | 16.72173 | 27.00468 | 34063 ft | 446 kts | 324° |
| 2026-04-10 11:11 | 16.77557 | 26.97245 | 34058 ft | 446 kts | 324° |
| 2026-04-10 11:12 | 16.82938 | 26.94021 | 34053 ft | 446 kts | 324° |
| 2026-04-10 11:12 | 16.88320 | 26.90795 | 34052 ft | 446 kts | 324° |
| 2026-04-10 11:13 | 16.93699 | 26.87568 | 34053 ft | 446 kts | 324° |
| 2026-04-10 11:13 | 16.99082 | 26.84337 | 34048 ft | 446 kts | 324° |
| 2026-04-10 11:14 | 17.04425 | 26.81128 | 34052 ft | 446 kts | 324° |
| 2026-04-10 11:14 | 17.09804 | 26.77895 | 34048 ft | 446 kts | 324° |
| 2026-04-10 11:15 | 17.15187 | 26.74657 | 34060 ft | 446 kts | 324° |
| 2026-04-10 11:15 | 17.20564 | 26.71421 | 34048 ft | 446 kts | 324° |
| 2026-04-10 11:16 | 17.25941 | 26.68183 | 34054 ft | 445 kts | 324° |
| 2026-04-10 11:16 | 17.31302 | 26.64953 | 34054 ft | 445 kts | 324° |
| 2026-04-10 11:17 | 17.36672 | 26.61714 | 34056 ft | 445 kts | 324° |
| 2026-04-10 11:17 | 17.42028 | 26.58481 | 34056 ft | 445 kts | 324° |
| 2026-04-10 11:18 | 17.47354 | 26.55265 | 34055 ft | 444 kts | 324° |
| 2026-04-10 11:18 | 17.52713 | 26.52026 | 34061 ft | 444 kts | 324° |
| 2026-04-10 11:19 | 17.58059 | 26.48794 | 34060 ft | 442 kts | 324° |
| 2026-04-10 11:19 | 17.63366 | 26.45584 | 34062 ft | 439 kts | 324° |
| 2026-04-10 11:20 | 17.67766 | 26.42918 | 34063 ft | 439 kts | 324° |
| 2026-04-10 11:20 | 17.73057 | 26.39711 | 34065 ft | 439 kts | 324° |
| 2026-04-10 11:21 | 17.78344 | 26.36505 | 34064 ft | 439 kts | 324° |
| 2026-04-10 11:21 | 17.83631 | 26.33297 | 34065 ft | 439 kts | 324° |
| 2026-04-10 11:22 | 17.88917 | 26.30087 | 34080 ft | 439 kts | 324° |
| 2026-04-10 11:22 | 17.94191 | 26.26884 | 34063 ft | 436 kts | 324° |
| 2026-04-10 11:23 | 17.99441 | 26.23693 | 34067 ft | 436 kts | 324° |
| 2026-04-10 11:23 | 18.04686 | 26.20500 | 34070 ft | 436 kts | 324° |
| 2026-04-10 11:24 | 18.09933 | 26.17304 | 34067 ft | 436 kts | 324° |
| 2026-04-10 11:24 | 18.15180 | 26.14107 | 34067 ft | 436 kts | 324° |
| 2026-04-10 11:25 | 18.20394 | 26.10929 | 34072 ft | 436 kts | 324° |
| 2026-04-10 11:25 | 18.25641 | 26.07727 | 34075 ft | 436 kts | 323° |
| 2026-04-10 11:26 | 18.30878 | 26.04530 | 34069 ft | 435 kts | 323° |
| 2026-04-10 11:26 | 18.36115 | 26.01330 | 34070 ft | 435 kts | 323° |
| 2026-04-10 11:27 | 18.41348 | 25.98130 | 34072 ft | 435 kts | 323° |
| 2026-04-10 11:27 | 18.46586 | 25.94925 | 34081 ft | 435 kts | 323° |
| 2026-04-10 11:28 | 18.51815 | 25.91724 | 34074 ft | 434 kts | 323° |
| 2026-04-10 11:28 | 18.57039 | 25.88523 | 34098 ft | 434 kts | 323° |
| 2026-04-10 11:29 | 18.62244 | 25.85332 | 34077 ft | 432 kts | 323° |
| 2026-04-10 11:29 | 18.67436 | 25.82146 | 34078 ft | 431 kts | 323° |
| 2026-04-10 11:30 | 18.72616 | 25.78964 | 34080 ft | 431 kts | 323° |
| 2026-04-10 11:30 | 18.77801 | 25.75777 | 34083 ft | 431 kts | 323° |
| 2026-04-10 11:31 | 18.82948 | 25.72611 | 34083 ft | 431 kts | 323° |
| 2026-04-10 11:31 | 18.88128 | 25.69423 | 34083 ft | 431 kts | 323° |
| 2026-04-10 11:32 | 18.93307 | 25.66234 | 34082 ft | 429 kts | 323° |
| 2026-04-10 11:32 | 18.98444 | 25.63071 | 34088 ft | 425 kts | 323° |
| 2026-04-10 11:33 | 19.03535 | 25.59932 | 34085 ft | 423 kts | 323° |
| 2026-04-10 11:33 | 19.08615 | 25.56794 | 34088 ft | 422 kts | 323° |
| 2026-04-10 11:34 | 19.13689 | 25.53658 | 34086 ft | 422 kts | 323° |
| 2026-04-10 11:34 | 19.18763 | 25.50521 | 34085 ft | 422 kts | 323° |
| 2026-04-10 11:35 | 19.23841 | 25.47380 | 34088 ft | 422 kts | 323° |
| 2026-04-10 11:35 | 19.28895 | 25.44254 | 34088 ft | 419 kts | 323° |
| 2026-04-10 11:36 | 19.33907 | 25.41152 | 34094 ft | 417 kts | 323° |
| 2026-04-10 11:36 | 19.38916 | 25.38046 | 34097 ft | 417 kts | 323° |
| 2026-04-10 11:37 | 19.43889 | 25.34961 | 34082 ft | 417 kts | 322° |
| 2026-04-10 11:37 | 19.48887 | 25.31859 | 34104 ft | 416 kts | 323° |
| 2026-04-10 11:38 | 19.53876 | 25.28761 | 34091 ft | 414 kts | 323° |
| 2026-04-10 11:38 | 19.58849 | 25.25670 | 34094 ft | 414 kts | 322° |
| 2026-04-10 11:39 | 19.63821 | 25.22577 | 34106 ft | 414 kts | 322° |
| 2026-04-10 11:39 | 19.68791 | 25.19483 | 34093 ft | 414 kts | 322° |
| 2026-04-10 11:40 | 19.73764 | 25.16386 | 34093 ft | 414 kts | 322° |
| 2026-04-10 11:40 | 19.78704 | 25.13306 | 34094 ft | 414 kts | 322° |
| 2026-04-10 11:41 | 19.83675 | 25.10206 | 34109 ft | 414 kts | 322° |
| 2026-04-10 11:41 | 19.88642 | 25.07106 | 34110 ft | 414 kts | 322° |
| 2026-04-10 11:42 | 19.93604 | 25.04006 | 34111 ft | 412 kts | 322° |
| 2026-04-10 11:42 | 19.98541 | 25.00946 | 34107 ft | 411 kts | 324° |
| 2026-04-10 11:43 | 20.03818 | 24.98497 | 34105 ft | 415 kts | 330° |
| 2026-04-10 11:43 | 20.09221 | 24.96318 | 34105 ft | 416 kts | 331° |
| 2026-04-10 11:44 | 20.14650 | 24.94189 | 34105 ft | 416 kts | 331° |
| 2026-04-10 11:44 | 20.20081 | 24.92055 | 34108 ft | 416 kts | 331° |
| 2026-04-10 11:45 | 20.25506 | 24.89911 | 34131 ft | 416 kts | 331° |
| 2026-04-10 11:45 | 20.30904 | 24.87772 | 34108 ft | 412 kts | 331° |
| 2026-04-10 11:46 | 20.36272 | 24.85641 | 34109 ft | 411 kts | 331° |
| 2026-04-10 11:46 | 20.41597 | 24.83523 | 34106 ft | 411 kts | 331° |
| 2026-04-10 11:47 | 20.46962 | 24.81389 | 34117 ft | 411 kts | 331° |
| 2026-04-10 11:47 | 20.52328 | 24.79255 | 34112 ft | 411 kts | 331° |
| 2026-04-10 11:48 | 20.57692 | 24.77119 | 34143 ft | 411 kts | 331° |
| 2026-04-10 11:48 | 20.63034 | 24.74994 | 34110 ft | 408 kts | 330° |
| 2026-04-10 11:49 | 20.68342 | 24.72878 | 34115 ft | 407 kts | 330° |
| 2026-04-10 11:49 | 20.73652 | 24.70757 | 34113 ft | 407 kts | 330° |
| 2026-04-10 11:50 | 20.78965 | 24.68634 | 34113 ft | 407 kts | 330° |
| 2026-04-10 11:50 | 20.84271 | 24.66514 | 34110 ft | 407 kts | 330° |
| 2026-04-10 11:51 | 20.89580 | 24.64391 | 34138 ft | 407 kts | 330° |
| 2026-04-10 11:51 | 20.94874 | 24.62273 | 34113 ft | 405 kts | 330° |
| 2026-04-10 11:52 | 21.00147 | 24.60162 | 34109 ft | 404 kts | 330° |
| 2026-04-10 11:52 | 21.05418 | 24.58048 | 34110 ft | 404 kts | 330° |
| 2026-04-10 11:53 | 21.10684 | 24.55935 | 34115 ft | 404 kts | 330° |
| 2026-04-10 11:53 | 21.15952 | 24.53820 | 34110 ft | 404 kts | 330° |
| 2026-04-10 11:54 | 21.21215 | 24.51706 | 34111 ft | 404 kts | 330° |
| 2026-04-10 11:54 | 21.26439 | 24.49607 | 34107 ft | 402 kts | 330° |
| 2026-04-10 11:55 | 21.31672 | 24.47503 | 34108 ft | 401 kts | 330° |
| 2026-04-10 11:55 | 21.36902 | 24.45395 | 34104 ft | 401 kts | 330° |
| 2026-04-10 11:56 | 21.42125 | 24.43289 | 34102 ft | 401 kts | 330° |
| 2026-04-10 11:56 | 21.47350 | 24.41182 | 34103 ft | 401 kts | 330° |
| 2026-04-10 11:57 | 21.52573 | 24.39074 | 34105 ft | 401 kts | 330° |
| 2026-04-10 11:57 | 21.57792 | 24.36967 | 34113 ft | 399 kts | 330° |
| 2026-04-10 11:58 | 21.62990 | 24.34868 | 34104 ft | 398 kts | 330° |
| 2026-04-10 11:58 | 21.68176 | 24.32770 | 34109 ft | 398 kts | 330° |
| 2026-04-10 11:59 | 21.73365 | 24.30667 | 34110 ft | 398 kts | 330° |
| 2026-04-10 11:59 | 21.78550 | 24.28567 | 34104 ft | 398 kts | 330° |
| 2026-04-10 12:00 | 21.83694 | 24.26480 | 34112 ft | 398 kts | 330° |
| 2026-04-10 12:00 | 21.88884 | 24.24374 | 34118 ft | 397 kts | 330° |
| 2026-04-10 12:01 | 21.94049 | 24.22278 | 34114 ft | 397 kts | 330° |
| 2026-04-10 12:01 | 21.99210 | 24.20181 | 34117 ft | 396 kts | 330° |
| 2026-04-10 12:02 | 22.04373 | 24.18080 | 34113 ft | 396 kts | 330° |
| 2026-04-10 12:02 | 22.09531 | 24.15980 | 34114 ft | 396 kts | 330° |
| 2026-04-10 12:03 | 22.14694 | 24.13877 | 34118 ft | 397 kts | 330° |
| 2026-04-10 12:03 | 22.19859 | 24.11772 | 34124 ft | 397 kts | 330° |
| 2026-04-10 12:04 | 22.25014 | 24.09669 | 34129 ft | 396 kts | 330° |
| 2026-04-10 12:04 | 22.30172 | 24.07563 | 34124 ft | 396 kts | 330° |
| 2026-04-10 12:05 | 22.35334 | 24.05454 | 34124 ft | 396 kts | 330° |
| 2026-04-10 12:05 | 22.40478 | 24.03350 | 34124 ft | 396 kts | 330° |
| 2026-04-10 12:06 | 22.45631 | 24.01241 | 34126 ft | 396 kts | 330° |
| 2026-04-10 12:06 | 22.50781 | 23.99131 | 34153 ft | 396 kts | 330° |
| 2026-04-10 12:07 | 22.58522 | 23.95955 | 34129 ft | 397 kts | 330° |
| 2026-04-10 12:08 | 22.63658 | 23.93848 | 34127 ft | 397 kts | 330° |
| 2026-04-10 12:08 | 22.68830 | 23.91724 | 34126 ft | 397 kts | 330° |
| 2026-04-10 12:09 | 22.73997 | 23.89600 | 34128 ft | 397 kts | 330° |
| 2026-04-10 12:09 | 22.78328 | 23.87819 | 34130 ft | 397 kts | 330° |
| 2026-04-10 12:10 | 22.83460 | 23.85706 | 34129 ft | 397 kts | 330° |
| 2026-04-10 12:10 | 22.88624 | 23.83577 | 34135 ft | 397 kts | 330° |
| 2026-04-10 12:11 | 22.93789 | 23.81448 | 34134 ft | 397 kts | 330° |
| 2026-04-10 12:11 | 22.98957 | 23.79315 | 34132 ft | 397 kts | 330° |
| 2026-04-10 12:12 | 23.04121 | 23.77182 | 34132 ft | 397 kts | 330° |
| 2026-04-10 12:12 | 23.09284 | 23.75047 | 34136 ft | 397 kts | 330° |
| 2026-04-10 12:13 | 23.14448 | 23.72910 | 34152 ft | 398 kts | 331° |
| 2026-04-10 12:13 | 23.19635 | 23.70760 | 34131 ft | 400 kts | 331° |
| 2026-04-10 12:14 | 23.24841 | 23.68603 | 34135 ft | 400 kts | 331° |
| 2026-04-10 12:14 | 23.30049 | 23.66445 | 34137 ft | 400 kts | 331° |
| 2026-04-10 12:15 | 23.35260 | 23.64282 | 34132 ft | 400 kts | 331° |
| 2026-04-10 12:15 | 23.40463 | 23.62121 | 34137 ft | 400 kts | 331° |
| 2026-04-10 12:16 | 23.45668 | 23.59956 | 34169 ft | 401 kts | 331° |
| 2026-04-10 12:16 | 23.50900 | 23.57777 | 34140 ft | 404 kts | 331° |
| 2026-04-10 12:17 | 23.56125 | 23.55599 | 34145 ft | 405 kts | 331° |
| 2026-04-10 12:17 | 23.61388 | 23.53407 | 34143 ft | 405 kts | 331° |
| 2026-04-10 12:18 | 23.66653 | 23.51211 | 34143 ft | 405 kts | 331° |
| 2026-04-10 12:18 | 23.71914 | 23.49015 | 34146 ft | 405 kts | 331° |
| 2026-04-10 12:19 | 23.77173 | 23.46816 | 34165 ft | 405 kts | 332° |
| 2026-04-10 12:19 | 23.82451 | 23.44606 | 34144 ft | 407 kts | 332° |
| 2026-04-10 12:20 | 23.87754 | 23.42385 | 34143 ft | 408 kts | 332° |
| 2026-04-10 12:20 | 23.93055 | 23.40165 | 34143 ft | 408 kts | 332° |
| 2026-04-10 12:21 | 23.98366 | 23.37939 | 34144 ft | 408 kts | 332° |
| 2026-04-10 12:21 | 24.03669 | 23.35713 | 34143 ft | 408 kts | 332° |
| 2026-04-10 12:22 | 24.08973 | 23.33484 | 34160 ft | 409 kts | 332° |
| 2026-04-10 12:22 | 24.14169 | 23.31094 | 34143 ft | 404 kts | 325° |
| 2026-04-10 12:23 | 24.18720 | 23.27622 | 34140 ft | 397 kts | 316° |
| 2026-04-10 12:23 | 24.22935 | 23.23719 | 34141 ft | 396 kts | 315° |
| 2026-04-10 12:24 | 24.27084 | 23.19735 | 34144 ft | 396 kts | 315° |
| 2026-04-10 12:24 | 24.31237 | 23.15751 | 34143 ft | 397 kts | 315° |
| 2026-04-10 12:25 | 24.35401 | 23.11777 | 34143 ft | 397 kts | 315° |
| 2026-04-10 12:25 | 24.39570 | 23.07806 | 34143 ft | 397 kts | 315° |
| 2026-04-10 12:26 | 24.43741 | 23.03831 | 34147 ft | 398 kts | 315° |
| 2026-04-10 12:26 | 24.47923 | 22.99841 | 34131 ft | 399 kts | 315° |
| 2026-04-10 12:27 | 24.52107 | 22.95845 | 34145 ft | 399 kts | 315° |
| 2026-04-10 12:27 | 24.56294 | 22.91844 | 34144 ft | 399 kts | 315° |
| 2026-04-10 12:28 | 24.60451 | 22.87867 | 34140 ft | 399 kts | 315° |
| 2026-04-10 12:28 | 24.64657 | 22.83838 | 34139 ft | 398 kts | 315° |
| 2026-04-10 12:29 | 24.68834 | 22.79834 | 34143 ft | 398 kts | 315° |
| 2026-04-10 12:29 | 24.73012 | 22.75825 | 34136 ft | 399 kts | 315° |
| 2026-04-10 12:30 | 24.77167 | 22.71834 | 34160 ft | 399 kts | 315° |
| 2026-04-10 12:30 | 24.81350 | 22.67814 | 34151 ft | 399 kts | 315° |
| 2026-04-10 12:31 | 24.85534 | 22.63788 | 34136 ft | 400 kts | 315° |
| 2026-04-10 12:31 | 24.89718 | 22.59759 | 34133 ft | 400 kts | 315° |
| 2026-04-10 12:32 | 24.93901 | 22.55727 | 34156 ft | 400 kts | 315° |
| 2026-04-10 12:32 | 24.98085 | 22.51689 | 34153 ft | 400 kts | 315° |
| 2026-04-10 12:33 | 25.02265 | 22.47653 | 34146 ft | 400 kts | 315° |
| 2026-04-10 12:33 | 25.06445 | 22.43612 | 34149 ft | 400 kts | 315° |
| 2026-04-10 12:34 | 25.10628 | 22.39564 | 34179 ft | 400 kts | 315° |
| 2026-04-10 12:34 | 25.14813 | 22.35510 | 34148 ft | 400 kts | 315° |
| 2026-04-10 12:35 | 25.18997 | 22.31455 | 34153 ft | 400 kts | 315° |
| 2026-04-10 12:35 | 25.23174 | 22.27401 | 34152 ft | 400 kts | 315° |
| 2026-04-10 12:36 | 25.27346 | 22.23349 | 34150 ft | 400 kts | 315° |
| 2026-04-10 12:36 | 25.31522 | 22.19290 | 34151 ft | 400 kts | 315° |
| 2026-04-10 12:37 | 25.35665 | 22.15257 | 34150 ft | 400 kts | 315° |
| 2026-04-10 12:37 | 25.39840 | 22.11191 | 34145 ft | 400 kts | 315° |
| 2026-04-10 12:38 | 25.44018 | 22.07117 | 34143 ft | 400 kts | 315° |
| 2026-04-10 12:38 | 25.48194 | 22.03042 | 34148 ft | 399 kts | 315° |
| 2026-04-10 12:39 | 25.52357 | 21.98975 | 34146 ft | 399 kts | 315° |
| 2026-04-10 12:39 | 25.56518 | 21.94907 | 34146 ft | 399 kts | 315° |
| 2026-04-10 12:40 | 25.60683 | 21.90829 | 34146 ft | 399 kts | 315° |
| 2026-04-10 12:40 | 25.64849 | 21.86748 | 34146 ft | 399 kts | 315° |
| 2026-04-10 12:41 | 25.69009 | 21.82668 | 34146 ft | 399 kts | 315° |
| 2026-04-10 12:41 | 25.73167 | 21.78587 | 34133 ft | 399 kts | 315° |
| 2026-04-10 12:42 | 25.77303 | 21.74522 | 34143 ft | 400 kts | 315° |
| 2026-04-10 12:42 | 25.81470 | 21.70424 | 34145 ft | 400 kts | 315° |
| 2026-04-10 12:43 | 25.85636 | 21.66324 | 34140 ft | 399 kts | 315° |
| 2026-04-10 12:43 | 25.89792 | 21.62228 | 34140 ft | 399 kts | 315° |
| 2026-04-10 12:44 | 25.93947 | 21.58129 | 34141 ft | 399 kts | 315° |
| 2026-04-10 12:44 | 25.98102 | 21.54027 | 34140 ft | 399 kts | 315° |
| 2026-04-10 12:45 | 26.02254 | 21.49923 | 34134 ft | 399 kts | 315° |
| 2026-04-10 12:45 | 26.06384 | 21.45837 | 34137 ft | 399 kts | 315° |
| 2026-04-10 12:46 | 26.10533 | 21.41728 | 34137 ft | 399 kts | 315° |
| 2026-04-10 12:46 | 26.14682 | 21.37615 | 34138 ft | 399 kts | 315° |
| 2026-04-10 12:47 | 26.18827 | 21.33502 | 34141 ft | 399 kts | 315° |
| 2026-04-10 12:47 | 26.22976 | 21.29381 | 34137 ft | 399 kts | 314° |
| 2026-04-10 12:48 | 26.27126 | 21.25254 | 34136 ft | 399 kts | 314° |
| 2026-04-10 12:48 | 26.31274 | 21.21126 | 34138 ft | 399 kts | 314° |
| 2026-04-10 12:49 | 26.35418 | 21.16997 | 34137 ft | 399 kts | 314° |
| 2026-04-10 12:49 | 26.39567 | 21.12860 | 34130 ft | 399 kts | 314° |
| 2026-04-10 12:50 | 26.43685 | 21.08749 | 34139 ft | 400 kts | 314° |
| 2026-04-10 12:50 | 26.47833 | 21.04603 | 34136 ft | 400 kts | 315° |
| 2026-04-10 12:51 | 26.51969 | 21.00468 | 34137 ft | 399 kts | 314° |
| 2026-04-10 12:51 | 26.56106 | 20.96325 | 34138 ft | 399 kts | 314° |
| 2026-04-10 12:52 | 26.60238 | 20.92184 | 34137 ft | 399 kts | 314° |
| 2026-04-10 12:52 | 26.64368 | 20.88039 | 34138 ft | 399 kts | 314° |
| 2026-04-10 12:53 | 26.68500 | 20.83890 | 34135 ft | 399 kts | 314° |
| 2026-04-10 12:53 | 26.72629 | 20.79739 | 34131 ft | 399 kts | 314° |
| 2026-04-10 12:54 | 26.76735 | 20.75606 | 34138 ft | 400 kts | 314° |
| 2026-04-10 12:54 | 26.80869 | 20.71441 | 34148 ft | 400 kts | 314° |
| 2026-04-10 12:55 | 26.85001 | 20.67275 | 34140 ft | 399 kts | 314° |
| 2026-04-10 12:55 | 26.89127 | 20.63110 | 34138 ft | 399 kts | 314° |
| 2026-04-10 12:56 | 26.93250 | 20.58943 | 34140 ft | 399 kts | 314° |
| 2026-04-10 12:56 | 26.96675 | 20.55479 | 34141 ft | 399 kts | 314° |
| 2026-04-10 12:57 | 27.00796 | 20.51307 | 34138 ft | 399 kts | 314° |
| 2026-04-10 12:57 | 27.05583 | 20.46454 | 34126 ft | 399 kts | 314° |
| 2026-04-10 12:58 | 27.09033 | 20.42955 | 34138 ft | 400 kts | 314° |
| 2026-04-10 12:58 | 27.13155 | 20.38769 | 34155 ft | 400 kts | 314° |
| 2026-04-10 12:59 | 27.17281 | 20.34574 | 34141 ft | 400 kts | 314° |
| 2026-04-10 12:59 | 27.21399 | 20.30384 | 34141 ft | 400 kts | 314° |
| 2026-04-10 13:00 | 27.25518 | 20.26187 | 34142 ft | 400 kts | 314° |
| 2026-04-10 13:00 | 27.29635 | 20.21989 | 34141 ft | 399 kts | 314° |
| 2026-04-10 13:01 | 27.33751 | 20.17787 | 34138 ft | 399 kts | 314° |
| 2026-04-10 13:01 | 27.37836 | 20.13612 | 34129 ft | 400 kts | 314° |
| 2026-04-10 13:02 | 27.41955 | 20.09399 | 34137 ft | 400 kts | 314° |
| 2026-04-10 13:02 | 27.46078 | 20.05175 | 34138 ft | 401 kts | 314° |
| 2026-04-10 13:03 | 27.50198 | 20.00949 | 34134 ft | 401 kts | 314° |
| 2026-04-10 13:03 | 27.54317 | 19.96708 | 34133 ft | 401 kts | 314° |
| 2026-04-10 13:04 | 27.58433 | 19.92461 | 34129 ft | 401 kts | 314° |
| 2026-04-10 13:04 | 27.62517 | 19.88243 | 34129 ft | 401 kts | 314° |
| 2026-04-10 13:05 | 27.66628 | 19.83994 | 34130 ft | 401 kts | 314° |
| 2026-04-10 13:05 | 27.70739 | 19.79741 | 34144 ft | 401 kts | 314° |
| 2026-04-10 13:06 | 27.74848 | 19.75484 | 34131 ft | 401 kts | 314° |
| 2026-04-10 13:06 | 27.78962 | 19.71219 | 34128 ft | 401 kts | 314° |
| 2026-04-10 13:07 | 27.83077 | 19.66949 | 34131 ft | 401 kts | 314° |
| 2026-04-10 13:07 | 27.87186 | 19.62679 | 34131 ft | 401 kts | 314° |
| 2026-04-10 13:08 | 27.91267 | 19.58434 | 34135 ft | 401 kts | 314° |
| 2026-04-10 13:08 | 27.95375 | 19.54157 | 34128 ft | 401 kts | 314° |
| 2026-04-10 13:09 | 28.01536 | 19.47732 | 34127 ft | 401 kts | 314° |
| 2026-04-10 13:09 | 28.05641 | 19.43445 | 34126 ft | 401 kts | 314° |
| 2026-04-10 13:10 | 28.09744 | 19.39156 | 34133 ft | 401 kts | 314° |
| 2026-04-10 13:10 | 28.13842 | 19.34869 | 34143 ft | 401 kts | 314° |
| 2026-04-10 13:11 | 28.17941 | 19.30575 | 34129 ft | 401 kts | 314° |
| 2026-04-10 13:11 | 28.22031 | 19.26285 | 34129 ft | 401 kts | 314° |
| 2026-04-10 13:12 | 28.26124 | 19.21988 | 34126 ft | 401 kts | 314° |
| 2026-04-10 13:12 | 28.30215 | 19.17688 | 34127 ft | 401 kts | 314° |
| 2026-04-10 13:13 | 28.34279 | 19.13412 | 34125 ft | 401 kts | 314° |
| 2026-04-10 13:13 | 28.38367 | 19.09106 | 34127 ft | 401 kts | 314° |
| 2026-04-10 13:14 | 28.42456 | 19.04794 | 34125 ft | 401 kts | 314° |
| 2026-04-10 13:14 | 28.46546 | 19.00477 | 34144 ft | 401 kts | 314° |
| 2026-04-10 13:15 | 28.50635 | 18.96156 | 34124 ft | 402 kts | 314° |
| 2026-04-10 13:15 | 28.54726 | 18.91828 | 34123 ft | 402 kts | 314° |
| 2026-04-10 13:16 | 28.58817 | 18.87495 | 34122 ft | 402 kts | 314° |
| 2026-04-10 13:16 | 28.62903 | 18.83162 | 34122 ft | 402 kts | 314° |
| 2026-04-10 13:17 | 28.66988 | 18.78825 | 34121 ft | 402 kts | 314° |
| 2026-04-10 13:17 | 28.71074 | 18.74483 | 34121 ft | 402 kts | 314° |
| 2026-04-10 13:18 | 28.75166 | 18.70129 | 34122 ft | 402 kts | 314° |
| 2026-04-10 13:18 | 28.79252 | 18.65778 | 34139 ft | 402 kts | 314° |
| 2026-04-10 13:19 | 28.83347 | 18.61410 | 34121 ft | 403 kts | 314° |
| 2026-04-10 13:19 | 28.87449 | 18.57031 | 34121 ft | 404 kts | 314° |
| 2026-04-10 13:20 | 28.91546 | 18.52653 | 34121 ft | 404 kts | 314° |
| 2026-04-10 13:20 | 28.95646 | 18.48267 | 34122 ft | 404 kts | 314° |
| 2026-04-10 13:21 | 28.99716 | 18.43907 | 34121 ft | 404 kts | 314° |
| 2026-04-10 13:21 | 29.03812 | 18.39515 | 34121 ft | 404 kts | 314° |
| 2026-04-10 13:22 | 29.07916 | 18.35109 | 34121 ft | 405 kts | 314° |
| 2026-04-10 13:22 | 29.12013 | 18.30705 | 34142 ft | 404 kts | 314° |
| 2026-04-10 13:23 | 29.16118 | 18.26287 | 34121 ft | 405 kts | 314° |
| 2026-04-10 13:23 | 29.20227 | 18.21860 | 34121 ft | 406 kts | 314° |
| 2026-04-10 13:24 | 29.24333 | 18.17432 | 34121 ft | 406 kts | 314° |
| 2026-04-10 13:24 | 29.28446 | 18.12991 | 34122 ft | 406 kts | 314° |
| 2026-04-10 13:25 | 29.32550 | 18.08555 | 34121 ft | 406 kts | 314° |
| 2026-04-10 13:25 | 29.36655 | 18.04111 | 34121 ft | 406 kts | 314° |
| 2026-04-10 13:26 | 29.40755 | 17.99669 | 34121 ft | 406 kts | 314° |
| 2026-04-10 13:26 | 29.44859 | 17.95213 | 34121 ft | 406 kts | 313° |
| 2026-04-10 13:27 | 29.48466 | 17.90292 | 34122 ft | 403 kts | 305° |
| 2026-04-10 13:27 | 29.51707 | 17.85101 | 34118 ft | 403 kts | 303° |
| 2026-04-10 13:28 | 29.54903 | 17.79817 | 34119 ft | 402 kts | 303° |
| 2026-04-10 13:28 | 29.58092 | 17.74530 | 34119 ft | 402 kts | 303° |
| 2026-04-10 13:29 | 29.61293 | 17.69242 | 34117 ft | 403 kts | 303° |
| 2026-04-10 13:29 | 29.64498 | 17.63949 | 34114 ft | 403 kts | 303° |
| 2026-04-10 13:30 | 29.67684 | 17.58685 | 34113 ft | 403 kts | 303° |
| 2026-04-10 13:30 | 29.70887 | 17.53386 | 34112 ft | 403 kts | 303° |
| 2026-04-10 13:31 | 29.74083 | 17.48091 | 34113 ft | 403 kts | 303° |
| 2026-04-10 13:31 | 29.77277 | 17.42790 | 34110 ft | 403 kts | 303° |
| 2026-04-10 13:32 | 29.80471 | 17.37484 | 34109 ft | 404 kts | 303° |
| 2026-04-10 13:32 | 29.83678 | 17.32149 | 34108 ft | 405 kts | 303° |
| 2026-04-10 13:33 | 29.86882 | 17.26812 | 34110 ft | 405 kts | 303° |
| 2026-04-10 13:33 | 29.90085 | 17.21469 | 34110 ft | 405 kts | 303° |
| 2026-04-10 13:34 | 29.93283 | 17.16129 | 34108 ft | 405 kts | 303° |
| 2026-04-10 13:34 | 29.96483 | 17.10777 | 34132 ft | 405 kts | 303° |
| 2026-04-10 13:35 | 29.98078 | 17.08108 | 34356 ft | 404 kts | 303° |
| 2026-04-10 13:35 | 29.99668 | 17.05445 | 34743 ft | 401 kts | 303° |
| 2026-04-10 13:35 | 30.01240 | 17.02811 | 35175 ft | 397 kts | 302° |
| 2026-04-10 13:35 | 30.02796 | 17.00203 | 35594 ft | 393 kts | 302° |
| 2026-04-10 13:36 | 30.04337 | 16.97617 | 35961 ft | 390 kts | 302° |
| 2026-04-10 13:36 | 30.05859 | 16.95061 | 36095 ft | 392 kts | 302° |
| 2026-04-10 13:36 | 30.08959 | 16.89847 | 36106 ft | 390 kts | 302° |
| 2026-04-10 13:37 | 30.12011 | 16.84709 | 36107 ft | 390 kts | 302° |
| 2026-04-10 13:37 | 30.15074 | 16.79547 | 36134 ft | 390 kts | 302° |
| 2026-04-10 13:38 | 30.18140 | 16.74372 | 36107 ft | 391 kts | 302° |
| 2026-04-10 13:38 | 30.21210 | 16.69185 | 36094 ft | 391 kts | 302° |
| 2026-04-10 13:39 | 30.24278 | 16.63994 | 36105 ft | 391 kts | 302° |
| 2026-04-10 13:39 | 30.27348 | 16.58794 | 36105 ft | 391 kts | 302° |
| 2026-04-10 13:40 | 30.30411 | 16.53598 | 36105 ft | 391 kts | 302° |
| 2026-04-10 13:40 | 30.33471 | 16.48400 | 36104 ft | 391 kts | 302° |
| 2026-04-10 13:41 | 30.36533 | 16.43192 | 36102 ft | 391 kts | 302° |
| 2026-04-10 13:41 | 30.39591 | 16.37985 | 36103 ft | 391 kts | 302° |
| 2026-04-10 13:42 | 30.42631 | 16.32769 | 36100 ft | 391 kts | 301° |
| 2026-04-10 13:42 | 30.45643 | 16.27508 | 36104 ft | 391 kts | 301° |
| 2026-04-10 13:43 | 30.48645 | 16.22240 | 36102 ft | 392 kts | 301° |
| 2026-04-10 13:43 | 30.51625 | 16.17012 | 36100 ft | 392 kts | 301° |
| 2026-04-10 13:44 | 30.54635 | 16.11732 | 36102 ft | 392 kts | 301° |
| 2026-04-10 13:44 | 30.57648 | 16.06438 | 36097 ft | 392 kts | 301° |
| 2026-04-10 13:45 | 30.60145 | 16.02047 | 36093 ft | 392 kts | 301° |
| 2026-04-10 13:45 | 30.63148 | 15.96759 | 36098 ft | 392 kts | 301° |
| 2026-04-10 13:46 | 30.66157 | 15.91454 | 36097 ft | 393 kts | 301° |
| 2026-04-10 13:46 | 30.69160 | 15.86152 | 36098 ft | 393 kts | 301° |
| 2026-04-10 13:47 | 30.72159 | 15.80849 | 36095 ft | 393 kts | 301° |
| 2026-04-10 13:47 | 30.75195 | 15.75558 | 36093 ft | 393 kts | 302° |
| 2026-04-10 13:48 | 30.78294 | 15.70326 | 36097 ft | 393 kts | 302° |
| 2026-04-10 13:48 | 30.81405 | 15.65097 | 36097 ft | 393 kts | 302° |
| 2026-04-10 13:49 | 30.84505 | 15.59864 | 36121 ft | 393 kts | 302° |
| 2026-04-10 13:49 | 30.87607 | 15.54607 | 36089 ft | 394 kts | 302° |
| 2026-04-10 13:50 | 30.90714 | 15.49333 | 36093 ft | 395 kts | 302° |
| 2026-04-10 13:50 | 30.93830 | 15.44063 | 36092 ft | 395 kts | 302° |
| 2026-04-10 13:51 | 30.96973 | 15.38821 | 36092 ft | 395 kts | 302° |
| 2026-04-10 13:51 | 31.00129 | 15.33570 | 36093 ft | 395 kts | 302° |
| 2026-04-10 13:52 | 31.03255 | 15.28358 | 36071 ft | 395 kts | 302° |
| 2026-04-10 13:52 | 31.06393 | 15.23111 | 36088 ft | 395 kts | 302° |
| 2026-04-10 13:53 | 31.09534 | 15.17850 | 36089 ft | 395 kts | 302° |
| 2026-04-10 13:53 | 31.12674 | 15.12584 | 36088 ft | 395 kts | 302° |
| 2026-04-10 13:54 | 31.15809 | 15.07320 | 36086 ft | 395 kts | 302° |
| 2026-04-10 13:54 | 31.18940 | 15.02057 | 36107 ft | 395 kts | 302° |
| 2026-04-10 13:55 | 31.22076 | 14.96776 | 36090 ft | 396 kts | 302° |
| 2026-04-10 13:55 | 31.25217 | 14.91480 | 36073 ft | 396 kts | 302° |
| 2026-04-10 13:56 | 31.28357 | 14.86179 | 36092 ft | 397 kts | 302° |
| 2026-04-10 13:56 | 31.31495 | 14.80874 | 36091 ft | 397 kts | 302° |
| 2026-04-10 13:57 | 31.34631 | 14.75566 | 36092 ft | 397 kts | 302° |
| 2026-04-10 13:57 | 31.37770 | 14.70246 | 36091 ft | 397 kts | 302° |
| 2026-04-10 13:58 | 31.40900 | 14.64931 | 36094 ft | 397 kts | 302° |
| 2026-04-10 13:58 | 31.44033 | 14.59606 | 36097 ft | 397 kts | 302° |
| 2026-04-10 13:59 | 31.47159 | 14.54285 | 36093 ft | 397 kts | 302° |
| 2026-04-10 13:59 | 31.50282 | 14.48962 | 36094 ft | 396 kts | 302° |
| 2026-04-10 14:00 | 31.53405 | 14.43631 | 36101 ft | 396 kts | 302° |
| 2026-04-10 14:00 | 31.56507 | 14.38330 | 36097 ft | 397 kts | 302° |
| 2026-04-10 14:01 | 31.59624 | 14.32995 | 36095 ft | 397 kts | 302° |
| 2026-04-10 14:01 | 31.62746 | 14.27645 | 36094 ft | 397 kts | 302° |
| 2026-04-10 14:02 | 31.65858 | 14.22304 | 36095 ft | 397 kts | 302° |
| 2026-04-10 14:02 | 31.68972 | 14.16952 | 36094 ft | 397 kts | 301° |
| 2026-04-10 14:03 | 31.72086 | 14.11592 | 36094 ft | 397 kts | 301° |
| 2026-04-10 14:03 | 31.75198 | 14.06230 | 36094 ft | 397 kts | 301° |
| 2026-04-10 14:04 | 31.78424 | 14.00956 | 36094 ft | 399 kts | 307° |
| 2026-04-10 14:05 | 31.84118 | 13.93781 | 36091 ft | 401 kts | 310° |
| 2026-04-10 14:05 | 31.88010 | 13.89075 | 36097 ft | 402 kts | 310° |
| 2026-04-10 14:06 | 31.91915 | 13.84352 | 36088 ft | 402 kts | 310° |
| 2026-04-10 14:06 | 31.95809 | 13.79619 | 36098 ft | 403 kts | 310° |
| 2026-04-10 14:07 | 31.99682 | 13.74896 | 36098 ft | 403 kts | 310° |
| 2026-04-10 14:07 | 32.03572 | 13.70145 | 36100 ft | 403 kts | 310° |
| 2026-04-10 14:08 | 32.07465 | 13.65383 | 36101 ft | 403 kts | 310° |
| 2026-04-10 14:08 | 32.11352 | 13.60623 | 36105 ft | 403 kts | 310° |
| 2026-04-10 14:09 | 32.15239 | 13.55858 | 36104 ft | 403 kts | 310° |
| 2026-04-10 14:09 | 32.19119 | 13.51096 | 36104 ft | 403 kts | 310° |
| 2026-04-10 14:10 | 32.22980 | 13.46300 | 36096 ft | 403 kts | 309° |
| 2026-04-10 14:10 | 32.26826 | 13.41471 | 36103 ft | 403 kts | 309° |
| 2026-04-10 14:11 | 32.30665 | 13.36641 | 36103 ft | 403 kts | 309° |
| 2026-04-10 14:11 | 32.34505 | 13.31811 | 36100 ft | 403 kts | 309° |
| 2026-04-10 14:12 | 32.38344 | 13.26978 | 36099 ft | 403 kts | 309° |
| 2026-04-10 14:12 | 32.42185 | 13.22137 | 36100 ft | 403 kts | 309° |
| 2026-04-10 14:13 | 32.45972 | 13.17248 | 36099 ft | 401 kts | 305° |
| 2026-04-10 14:13 | 32.49326 | 13.11983 | 36093 ft | 400 kts | 303° |
| 2026-04-10 14:14 | 32.52589 | 13.06625 | 36098 ft | 401 kts | 302° |
| 2026-04-10 14:14 | 32.55811 | 13.01279 | 36095 ft | 401 kts | 302° |
| 2026-04-10 14:15 | 32.59061 | 12.95888 | 36094 ft | 401 kts | 302° |
| 2026-04-10 14:15 | 32.62308 | 12.90509 | 36095 ft | 401 kts | 302° |
| 2026-04-10 14:16 | 32.65556 | 12.85124 | 36099 ft | 401 kts | 302° |
| 2026-04-10 14:16 | 32.68804 | 12.79732 | 36098 ft | 401 kts | 302° |
| 2026-04-10 14:17 | 32.72050 | 12.74335 | 36091 ft | 402 kts | 302° |
| 2026-04-10 14:17 | 32.75297 | 12.68929 | 36097 ft | 402 kts | 302° |
| 2026-04-10 14:18 | 32.78566 | 12.63531 | 36096 ft | 402 kts | 303° |
| 2026-04-10 14:18 | 32.81964 | 12.58234 | 36094 ft | 403 kts | 304° |
| 2026-04-10 14:19 | 32.85399 | 12.52971 | 36097 ft | 403 kts | 304° |
| 2026-04-10 14:19 | 32.88805 | 12.47730 | 36094 ft | 403 kts | 304° |
| 2026-04-10 14:20 | 32.92217 | 12.42447 | 36092 ft | 403 kts | 304° |
| 2026-04-10 14:20 | 32.95627 | 12.37152 | 36091 ft | 403 kts | 304° |
| 2026-04-10 14:21 | 32.99039 | 12.31844 | 36089 ft | 404 kts | 304° |
| 2026-04-10 14:21 | 33.02413 | 12.26503 | 36089 ft | 403 kts | 303° |
| 2026-04-10 14:22 | 33.05740 | 12.21129 | 36092 ft | 403 kts | 303° |
| 2026-04-10 14:22 | 33.09064 | 12.15743 | 36106 ft | 403 kts | 303° |
| 2026-04-10 14:23 | 33.12389 | 12.10359 | 36085 ft | 403 kts | 303° |
| 2026-04-10 14:23 | 33.15717 | 12.04971 | 36088 ft | 403 kts | 303° |
| 2026-04-10 14:24 | 33.19044 | 11.99578 | 36089 ft | 404 kts | 303° |
| 2026-04-10 14:24 | 33.22375 | 11.94170 | 36086 ft | 404 kts | 303° |
| 2026-04-10 14:25 | 33.25709 | 11.88749 | 36086 ft | 404 kts | 303° |
| 2026-04-10 14:25 | 33.29017 | 11.83363 | 36083 ft | 404 kts | 303° |
| 2026-04-10 14:26 | 33.32340 | 11.77944 | 36086 ft | 404 kts | 303° |
| 2026-04-10 14:26 | 33.35663 | 11.72516 | 36085 ft | 404 kts | 303° |
| 2026-04-10 14:27 | 33.38981 | 11.67091 | 36075 ft | 404 kts | 303° |
| 2026-04-10 14:27 | 33.42303 | 11.61648 | 36084 ft | 406 kts | 303° |
| 2026-04-10 14:28 | 33.45637 | 11.56178 | 36074 ft | 406 kts | 303° |
| 2026-04-10 14:28 | 33.48963 | 11.50710 | 36084 ft | 406 kts | 302° |
| 2026-04-10 14:29 | 33.52095 | 11.45099 | 36079 ft | 405 kts | 300° |
| 2026-04-10 14:29 | 33.55087 | 11.39386 | 36080 ft | 405 kts | 299° |
| 2026-04-10 14:30 | 33.58075 | 11.33663 | 36081 ft | 405 kts | 299° |
| 2026-04-10 14:30 | 33.60569 | 11.28921 | 36071 ft | 405 kts | 299° |
| 2026-04-10 14:31 | 33.64075 | 11.22276 | 36074 ft | 406 kts | 299° |
| 2026-04-10 14:31 | 33.67101 | 11.16539 | 36078 ft | 406 kts | 299° |
| 2026-04-10 14:32 | 33.69611 | 11.11772 | 36078 ft | 406 kts | 299° |
| 2026-04-10 14:32 | 33.72625 | 11.06039 | 36088 ft | 406 kts | 299° |
| 2026-04-10 14:33 | 33.75639 | 11.00296 | 36085 ft | 406 kts | 299° |
| 2026-04-10 14:33 | 33.78670 | 10.94512 | 36068 ft | 406 kts | 299° |
| 2026-04-10 14:34 | 33.81679 | 10.88758 | 36071 ft | 406 kts | 299° |
| 2026-04-10 14:34 | 33.84665 | 10.83042 | 36079 ft | 406 kts | 299° |
| 2026-04-10 14:35 | 33.87737 | 10.77284 | 36085 ft | 407 kts | 302° |
| 2026-04-10 14:35 | 33.91076 | 10.71816 | 36069 ft | 408 kts | 303° |
| 2026-04-10 14:36 | 33.94490 | 10.66362 | 36067 ft | 408 kts | 304° |
| 2026-04-10 14:36 | 33.97918 | 10.60908 | 36080 ft | 408 kts | 304° |
| 2026-04-10 14:37 | 34.01338 | 10.55450 | 36074 ft | 408 kts | 303° |
| 2026-04-10 14:37 | 34.04760 | 10.49970 | 36068 ft | 410 kts | 303° |
| 2026-04-10 14:38 | 34.08195 | 10.44460 | 36059 ft | 411 kts | 303° |
| 2026-04-10 14:38 | 34.11624 | 10.38951 | 36060 ft | 411 kts | 303° |
| 2026-04-10 14:39 | 34.15053 | 10.33435 | 36060 ft | 411 kts | 303° |
| 2026-04-10 14:39 | 34.18477 | 10.27916 | 36059 ft | 411 kts | 303° |
| 2026-04-10 14:40 | 34.21903 | 10.22388 | 36050 ft | 410 kts | 303° |
| 2026-04-10 14:40 | 34.25324 | 10.16858 | 36047 ft | 411 kts | 303° |
| 2026-04-10 14:41 | 34.28730 | 10.11343 | 36043 ft | 412 kts | 303° |
| 2026-04-10 14:41 | 34.32160 | 10.05782 | 36074 ft | 412 kts | 303° |
| 2026-04-10 14:42 | 34.35590 | 10.00212 | 36052 ft | 413 kts | 303° |
| 2026-04-10 14:42 | 34.39072 | 9.94676 | 36047 ft | 414 kts | 308° |
| 2026-04-10 14:43 | 34.43437 | 9.90049 | 36041 ft | 422 kts | 321° |
| 2026-04-10 14:43 | 34.48399 | 9.86207 | 36042 ft | 424 kts | 323° |
| 2026-04-10 14:44 | 34.53438 | 9.82540 | 36033 ft | 425 kts | 324° |
| 2026-04-10 14:44 | 34.58554 | 9.78823 | 36034 ft | 427 kts | 324° |
| 2026-04-10 14:45 | 34.63605 | 9.75116 | 36037 ft | 427 kts | 324° |
| 2026-04-10 14:45 | 34.68677 | 9.71371 | 36034 ft | 427 kts | 324° |
| 2026-04-10 14:46 | 34.73748 | 9.67616 | 36036 ft | 427 kts | 324° |
| 2026-04-10 14:46 | 34.78819 | 9.63857 | 36035 ft | 427 kts | 324° |
| 2026-04-10 14:47 | 34.83893 | 9.60090 | 36036 ft | 427 kts | 324° |
| 2026-04-10 14:47 | 34.88962 | 9.56324 | 36040 ft | 427 kts | 324° |
| 2026-04-10 14:48 | 34.94034 | 9.52548 | 36037 ft | 428 kts | 324° |
| 2026-04-10 14:48 | 34.99113 | 9.48763 | 36040 ft | 428 kts | 324° |
| 2026-04-10 14:49 | 35.04193 | 9.44971 | 36037 ft | 428 kts | 324° |
| 2026-04-10 14:49 | 35.09246 | 9.41193 | 36041 ft | 429 kts | 324° |
| 2026-04-10 14:50 | 35.14334 | 9.37383 | 36060 ft | 429 kts | 324° |
| 2026-04-10 14:50 | 35.19424 | 9.33567 | 36047 ft | 429 kts | 324° |
| 2026-04-10 14:51 | 35.24515 | 9.29744 | 36046 ft | 429 kts | 324° |
| 2026-04-10 14:51 | 35.29602 | 9.25919 | 36047 ft | 429 kts | 324° |
| 2026-04-10 14:52 | 35.34689 | 9.22087 | 36060 ft | 429 kts | 324° |
| 2026-04-10 14:52 | 35.39775 | 9.18251 | 36065 ft | 430 kts | 324° |
| 2026-04-10 14:53 | 35.44864 | 9.14406 | 36072 ft | 430 kts | 324° |
| 2026-04-10 14:53 | 35.49959 | 9.10552 | 36069 ft | 430 kts | 324° |
| 2026-04-10 14:54 | 35.55053 | 9.06684 | 36080 ft | 430 kts | 323° |
| 2026-04-10 14:54 | 35.60072 | 9.02687 | 36076 ft | 430 kts | 322° |
| 2026-04-10 14:55 | 35.65070 | 8.98608 | 36085 ft | 431 kts | 322° |
| 2026-04-10 14:55 | 35.70063 | 8.94530 | 36085 ft | 430 kts | 322° |
| 2026-04-10 14:56 | 35.75058 | 8.90462 | 36081 ft | 430 kts | 322° |
| 2026-04-10 14:56 | 35.80054 | 8.86394 | 36080 ft | 430 kts | 322° |
| 2026-04-10 14:57 | 35.85010 | 8.82353 | 36080 ft | 430 kts | 322° |
| 2026-04-10 14:57 | 35.89996 | 8.78282 | 36075 ft | 430 kts | 322° |
| 2026-04-10 14:58 | 35.94981 | 8.74204 | 36072 ft | 430 kts | 322° |
| 2026-04-10 14:58 | 35.99971 | 8.70116 | 36069 ft | 430 kts | 322° |
| 2026-04-10 14:59 | 36.04962 | 8.66021 | 36066 ft | 431 kts | 322° |
| 2026-04-10 14:59 | 36.09959 | 8.61914 | 36052 ft | 431 kts | 322° |
| 2026-04-10 15:00 | 36.14144 | 8.58471 | 36068 ft | 431 kts | 322° |
| 2026-04-10 15:00 | 36.19943 | 8.53692 | 36085 ft | 431 kts | 323° |
| 2026-04-10 15:01 | 36.24933 | 8.49572 | 36079 ft | 431 kts | 322° |
| 2026-04-10 15:01 | 36.29917 | 8.45450 | 36074 ft | 431 kts | 322° |
| 2026-04-10 15:02 | 36.34905 | 8.41319 | 36076 ft | 431 kts | 322° |
| 2026-04-10 15:02 | 36.39826 | 8.37093 | 36080 ft | 428 kts | 317° |
| 2026-04-10 15:03 | 36.44139 | 8.32044 | 36063 ft | 426 kts | 312° |
| 2026-04-10 15:03 | 36.48289 | 8.26764 | 36091 ft | 428 kts | 311° |
| 2026-04-10 15:04 | 36.52408 | 8.21428 | 36073 ft | 428 kts | 311° |
| 2026-04-10 15:04 | 36.56507 | 8.16123 | 36078 ft | 428 kts | 311° |
| 2026-04-10 15:05 | 36.62702 | 8.08122 | 36079 ft | 428 kts | 311° |
| 2026-04-10 15:05 | 36.66827 | 8.02789 | 36073 ft | 428 kts | 311° |
| 2026-04-10 15:06 | 36.70952 | 7.97446 | 36073 ft | 428 kts | 311° |
| 2026-04-10 15:06 | 36.75079 | 7.92093 | 36075 ft | 429 kts | 311° |
| 2026-04-10 15:07 | 36.79207 | 7.86728 | 36075 ft | 429 kts | 311° |
| 2026-04-10 15:07 | 36.82993 | 7.81022 | 36075 ft | 425 kts | 300° |
| 2026-04-10 15:08 | 36.85592 | 7.74423 | 36076 ft | 423 kts | 292° |
| 2026-04-10 15:08 | 36.87839 | 7.67629 | 36078 ft | 424 kts | 291° |
| 2026-04-10 15:09 | 36.90024 | 7.60785 | 36078 ft | 424 kts | 291° |
| 2026-04-10 15:09 | 36.92221 | 7.53941 | 36075 ft | 425 kts | 290° |
| 2026-04-10 15:10 | 36.94438 | 7.47074 | 36077 ft | 426 kts | 291° |
| 2026-04-10 15:10 | 36.96657 | 7.40213 | 36075 ft | 426 kts | 291° |
| 2026-04-10 15:11 | 36.98872 | 7.33344 | 36074 ft | 426 kts | 290° |
| 2026-04-10 15:11 | 37.01070 | 7.26510 | 36075 ft | 426 kts | 290° |
| 2026-04-10 15:12 | 37.03275 | 7.19641 | 36075 ft | 425 kts | 290° |
| 2026-04-10 15:12 | 37.05476 | 7.12764 | 36075 ft | 425 kts | 290° |
| 2026-04-10 15:13 | 37.07673 | 7.05885 | 36075 ft | 425 kts | 290° |
| 2026-04-10 15:13 | 37.09865 | 6.99003 | 36078 ft | 425 kts | 290° |
| 2026-04-10 15:14 | 37.12056 | 6.92108 | 36075 ft | 425 kts | 290° |
| 2026-04-10 15:14 | 37.14239 | 6.85221 | 36078 ft | 425 kts | 290° |
| 2026-04-10 15:15 | 37.16425 | 6.78311 | 36081 ft | 427 kts | 290° |
| 2026-04-10 15:15 | 37.18610 | 6.71384 | 36081 ft | 428 kts | 290° |
| 2026-04-10 15:16 | 37.20795 | 6.64444 | 36077 ft | 428 kts | 290° |
| 2026-04-10 15:16 | 37.22607 | 6.58672 | 36078 ft | 428 kts | 290° |
| 2026-04-10 15:17 | 37.25138 | 6.50593 | 36075 ft | 428 kts | 290° |
| 2026-04-10 15:17 | 37.27308 | 6.43649 | 36075 ft | 428 kts | 290° |
| 2026-04-10 15:18 | 37.29130 | 6.37803 | 36072 ft | 429 kts | 290° |
| 2026-04-10 15:18 | 37.31289 | 6.30864 | 36077 ft | 429 kts | 290° |
| 2026-04-10 15:19 | 37.33455 | 6.23882 | 36067 ft | 429 kts | 290° |
| 2026-04-10 15:19 | 37.35617 | 6.16898 | 36067 ft | 429 kts | 290° |
| 2026-04-10 15:20 | 37.37774 | 6.09912 | 36072 ft | 429 kts | 290° |
| 2026-04-10 15:20 | 37.39931 | 6.02908 | 36070 ft | 430 kts | 289° |
| 2026-04-10 15:21 | 37.42089 | 5.95884 | 36069 ft | 431 kts | 289° |
| 2026-04-10 15:21 | 37.44242 | 5.88856 | 36069 ft | 431 kts | 289° |
| 2026-04-10 15:22 | 37.46396 | 5.81811 | 36070 ft | 431 kts | 289° |
| 2026-04-10 15:22 | 37.48542 | 5.74773 | 36069 ft | 431 kts | 289° |
| 2026-04-10 15:23 | 37.50673 | 5.67767 | 36067 ft | 431 kts | 289° |
| 2026-04-10 15:23 | 37.52822 | 5.60683 | 36067 ft | 433 kts | 289° |
| 2026-04-10 15:24 | 37.54969 | 5.53588 | 36070 ft | 433 kts | 289° |
| 2026-04-10 15:24 | 37.57110 | 5.46494 | 36067 ft | 433 kts | 289° |
| 2026-04-10 15:25 | 37.59247 | 5.39396 | 36070 ft | 433 kts | 289° |
| 2026-04-10 15:25 | 37.61379 | 5.32298 | 36065 ft | 432 kts | 289° |
| 2026-04-10 15:26 | 37.63507 | 5.25191 | 36067 ft | 434 kts | 289° |
| 2026-04-10 15:26 | 37.65638 | 5.18057 | 36064 ft | 435 kts | 289° |
| 2026-04-10 15:27 | 37.67764 | 5.10922 | 36339 ft | 435 kts | 289° |
| 2026-04-10 15:27 | 37.68825 | 5.07357 | 36684 ft | 433 kts | 288° |
| 2026-04-10 15:27 | 37.69881 | 5.03802 | 37008 ft | 432 kts | 288° |
| 2026-04-10 15:28 | 37.70937 | 5.00259 | 37341 ft | 430 kts | 289° |
| 2026-04-10 15:28 | 37.72036 | 4.96743 | 37659 ft | 429 kts | 290° |
| 2026-04-10 15:28 | 37.73166 | 4.93254 | 37918 ft | 430 kts | 290° |
| 2026-04-10 15:28 | 37.74317 | 4.89760 | 38046 ft | 432 kts | 290° |
| 2026-04-10 15:29 | 37.76599 | 4.82853 | 38068 ft | 427 kts | 290° |
| 2026-04-10 15:29 | 37.78864 | 4.75939 | 38062 ft | 425 kts | 290° |
| 2026-04-10 15:30 | 37.81111 | 4.69026 | 38069 ft | 425 kts | 290° |
| 2026-04-10 15:30 | 37.83620 | 4.62242 | 38065 ft | 428 kts | 299° |
| 2026-04-10 15:31 | 37.87373 | 4.56340 | 38062 ft | 433 kts | 310° |
| 2026-04-10 15:31 | 37.91625 | 4.50903 | 38065 ft | 436 kts | 312° |
| 2026-04-10 15:32 | 37.95985 | 4.45544 | 38064 ft | 436 kts | 312° |
| 2026-04-10 15:32 | 38.00324 | 4.40170 | 38064 ft | 436 kts | 312° |
| 2026-04-10 15:33 | 38.04642 | 4.34761 | 38064 ft | 436 kts | 312° |
| 2026-04-10 15:33 | 38.08945 | 4.29342 | 38064 ft | 436 kts | 311° |
| 2026-04-10 15:34 | 38.13248 | 4.23911 | 38068 ft | 436 kts | 312° |
| 2026-04-10 15:34 | 38.17544 | 4.18482 | 38069 ft | 435 kts | 312° |
| 2026-04-10 15:35 | 38.21848 | 4.13033 | 38068 ft | 438 kts | 311° |
| 2026-04-10 15:35 | 38.26167 | 4.07556 | 38062 ft | 438 kts | 311° |
| 2026-04-10 15:36 | 38.30483 | 4.02074 | 38064 ft | 438 kts | 311° |
| 2026-04-10 15:36 | 38.34796 | 3.96586 | 38064 ft | 438 kts | 311° |
| 2026-04-10 15:37 | 38.39112 | 3.91085 | 38064 ft | 438 kts | 311° |
| 2026-04-10 15:37 | 38.43391 | 3.85620 | 38064 ft | 438 kts | 311° |
| 2026-04-10 15:38 | 38.47698 | 3.80110 | 38070 ft | 439 kts | 311° |
| 2026-04-10 15:38 | 38.52017 | 3.74573 | 38064 ft | 441 kts | 311° |
| 2026-04-10 15:39 | 38.56354 | 3.69004 | 38062 ft | 442 kts | 311° |
| 2026-04-10 15:39 | 38.60691 | 3.63427 | 38068 ft | 442 kts | 311° |
| 2026-04-10 15:40 | 38.64984 | 3.57896 | 38063 ft | 441 kts | 311° |
| 2026-04-10 15:40 | 38.69303 | 3.52321 | 38064 ft | 441 kts | 311° |
| 2026-04-10 15:41 | 38.73616 | 3.46742 | 38066 ft | 441 kts | 311° |
| 2026-04-10 15:41 | 38.77928 | 3.41155 | 38066 ft | 441 kts | 311° |
| 2026-04-10 15:42 | 38.82241 | 3.35557 | 38066 ft | 441 kts | 311° |
| 2026-04-10 15:42 | 38.86548 | 3.29956 | 38067 ft | 440 kts | 311° |
| 2026-04-10 15:43 | 38.90841 | 3.24364 | 38063 ft | 439 kts | 311° |
| 2026-04-10 15:43 | 38.95126 | 3.18770 | 38061 ft | 439 kts | 311° |
| 2026-04-10 15:44 | 38.99409 | 3.13170 | 38062 ft | 439 kts | 311° |
| 2026-04-10 15:44 | 39.03661 | 3.07599 | 38064 ft | 439 kts | 311° |
| 2026-04-10 15:45 | 39.07942 | 3.01981 | 38062 ft | 440 kts | 311° |
| 2026-04-10 15:45 | 39.12230 | 2.96341 | 38065 ft | 441 kts | 311° |
| 2026-04-10 15:46 | 39.16519 | 2.90692 | 38057 ft | 441 kts | 311° |
| 2026-04-10 15:46 | 39.20798 | 2.85046 | 38067 ft | 440 kts | 311° |
| 2026-04-10 15:47 | 39.25075 | 2.79391 | 38056 ft | 440 kts | 311° |
| 2026-04-10 15:47 | 39.29351 | 2.73727 | 38059 ft | 440 kts | 311° |
| 2026-04-10 15:48 | 39.33630 | 2.68049 | 38062 ft | 440 kts | 311° |
| 2026-04-10 15:48 | 39.37890 | 2.62385 | 38072 ft | 440 kts | 311° |
| 2026-04-10 15:49 | 39.42157 | 2.56701 | 38072 ft | 441 kts | 311° |
| 2026-04-10 15:49 | 39.46424 | 2.51006 | 38072 ft | 441 kts | 311° |
| 2026-04-10 15:50 | 39.50690 | 2.45303 | 38070 ft | 441 kts | 311° |
| 2026-04-10 15:50 | 39.55419 | 2.40219 | 38068 ft | 446 kts | 326° |
| 2026-04-10 15:51 | 39.61142 | 2.37019 | 38068 ft | 450 kts | 338° |
| 2026-04-10 15:51 | 39.67116 | 2.34529 | 38067 ft | 451 kts | 340° |
| 2026-04-10 15:52 | 39.73132 | 2.32156 | 38063 ft | 452 kts | 340° |
| 2026-04-10 15:52 | 39.79134 | 2.29758 | 38075 ft | 452 kts | 339° |
| 2026-04-10 15:53 | 39.85125 | 2.27325 | 38053 ft | 450 kts | 339° |
| 2026-04-10 15:53 | 39.91105 | 2.24878 | 38054 ft | 451 kts | 339° |
| 2026-04-10 15:54 | 39.97088 | 2.22424 | 38053 ft | 451 kts | 339° |
| 2026-04-10 15:54 | 40.03078 | 2.19964 | 38055 ft | 451 kts | 339° |
| 2026-04-10 15:55 | 40.09051 | 2.17509 | 38053 ft | 450 kts | 339° |
| 2026-04-10 15:55 | 40.15020 | 2.15051 | 38053 ft | 450 kts | 339° |
| 2026-04-10 15:56 | 40.20983 | 2.12589 | 38045 ft | 450 kts | 339° |
| 2026-04-10 15:56 | 40.26942 | 2.10126 | 38045 ft | 447 kts | 340° |
| 2026-04-10 15:57 | 40.32852 | 2.07679 | 38048 ft | 444 kts | 340° |
| 2026-04-10 15:57 | 40.38743 | 2.05235 | 38048 ft | 444 kts | 340° |
| 2026-04-10 15:58 | 40.44623 | 2.02789 | 38048 ft | 444 kts | 340° |
| 2026-04-10 15:58 | 40.50515 | 2.00335 | 38045 ft | 444 kts | 340° |
| 2026-04-10 15:59 | 40.56406 | 1.97877 | 38045 ft | 444 kts | 340° |
| 2026-04-10 15:59 | 40.62298 | 1.95413 | 38045 ft | 444 kts | 340° |
| 2026-04-10 16:00 | 40.68194 | 1.92944 | 38048 ft | 444 kts | 340° |
| 2026-04-10 16:00 | 40.74051 | 1.90487 | 38047 ft | 445 kts | 340° |
| 2026-04-10 16:01 | 40.79947 | 1.88008 | 38042 ft | 446 kts | 340° |
| 2026-04-10 16:01 | 40.85855 | 1.85520 | 38042 ft | 446 kts | 340° |
| 2026-04-10 16:02 | 40.91771 | 1.83024 | 38047 ft | 446 kts | 341° |
| 2026-04-10 16:02 | 40.97686 | 1.80523 | 38040 ft | 447 kts | 341° |
| 2026-04-10 16:03 | 41.03604 | 1.78017 | 38043 ft | 447 kts | 341° |
| 2026-04-10 16:03 | 41.09524 | 1.75505 | 38053 ft | 447 kts | 341° |
| 2026-04-10 16:04 | 41.14443 | 1.73413 | 38049 ft | 447 kts | 341° |
| 2026-04-10 16:04 | 41.20386 | 1.71006 | 38053 ft | 447 kts | 346° |
| 2026-04-10 16:05 | 41.26528 | 1.69728 | 38054 ft | 447 kts | 351° |
| 2026-04-10 16:05 | 41.32712 | 1.68736 | 38051 ft | 448 kts | 352° |
| 2026-04-10 16:06 | 41.38899 | 1.67806 | 38048 ft | 446 kts | 353° |
| 2026-04-10 16:06 | 41.45062 | 1.66870 | 38044 ft | 445 kts | 352° |
| 2026-04-10 16:07 | 41.51217 | 1.65916 | 38040 ft | 445 kts | 352° |
| 2026-04-10 16:07 | 41.57371 | 1.64951 | 38041 ft | 445 kts | 353° |
| 2026-04-10 16:08 | 41.63514 | 1.63984 | 38035 ft | 444 kts | 353° |
| 2026-04-10 16:08 | 41.69653 | 1.63018 | 38037 ft | 444 kts | 353° |
| 2026-04-10 16:09 | 41.75783 | 1.62051 | 38032 ft | 444 kts | 353° |
| 2026-04-10 16:09 | 41.81913 | 1.61084 | 38025 ft | 443 kts | 353° |
| 2026-04-10 16:10 | 41.88028 | 1.60120 | 38020 ft | 442 kts | 353° |
| 2026-04-10 16:10 | 41.94136 | 1.59155 | 38021 ft | 442 kts | 353° |
| 2026-04-10 16:11 | 42.00249 | 1.58187 | 38022 ft | 442 kts | 353° |
| 2026-04-10 16:11 | 42.06324 | 1.57223 | 38020 ft | 439 kts | 353° |
| 2026-04-10 16:12 | 42.12390 | 1.56258 | 38031 ft | 439 kts | 353° |
| 2026-04-10 16:13 | 42.21485 | 1.54808 | 38053 ft | 437 kts | 353° |
| 2026-04-10 16:13 | 42.27467 | 1.53853 | 38049 ft | 435 kts | 353° |
| 2026-04-10 16:14 | 42.33456 | 1.52894 | 38049 ft | 434 kts | 353° |
| 2026-04-10 16:14 | 42.39462 | 1.51930 | 38046 ft | 434 kts | 353° |
| 2026-04-10 16:15 | 42.45377 | 1.50274 | 38055 ft | 435 kts | 343° |
| 2026-04-10 16:15 | 42.51112 | 1.47690 | 38058 ft | 434 kts | 341° |
| 2026-04-10 16:16 | 42.56817 | 1.44926 | 38070 ft | 435 kts | 341° |
| 2026-04-10 16:16 | 42.62501 | 1.42144 | 38080 ft | 434 kts | 341° |
| 2026-04-10 16:17 | 42.68193 | 1.39373 | 38086 ft | 435 kts | 341° |
| 2026-04-10 16:17 | 42.73888 | 1.36608 | 38081 ft | 435 kts | 341° |
| 2026-04-10 16:18 | 42.79594 | 1.33835 | 38072 ft | 435 kts | 341° |
| 2026-04-10 16:18 | 42.85291 | 1.31060 | 38074 ft | 435 kts | 341° |
| 2026-04-10 16:19 | 42.90993 | 1.28276 | 38069 ft | 435 kts | 341° |
| 2026-04-10 16:19 | 42.96687 | 1.25491 | 38070 ft | 435 kts | 341° |
| 2026-04-10 16:20 | 43.02385 | 1.22699 | 38068 ft | 435 kts | 341° |
| 2026-04-10 16:20 | 43.08067 | 1.19909 | 38058 ft | 433 kts | 341° |
| 2026-04-10 16:21 | 43.13728 | 1.17124 | 38046 ft | 432 kts | 341° |
| 2026-04-10 16:21 | 43.19388 | 1.14334 | 38040 ft | 432 kts | 341° |
| 2026-04-10 16:22 | 43.25053 | 1.11535 | 38042 ft | 433 kts | 341° |
| 2026-04-10 16:22 | 43.30714 | 1.08733 | 38036 ft | 432 kts | 341° |
| 2026-04-10 16:23 | 43.36366 | 1.05930 | 38032 ft | 432 kts | 341° |
| 2026-04-10 16:23 | 43.42015 | 1.03123 | 38032 ft | 432 kts | 341° |
| 2026-04-10 16:24 | 43.47650 | 1.00318 | 38030 ft | 430 kts | 341° |
| 2026-04-10 16:24 | 43.53230 | 0.97534 | 38033 ft | 429 kts | 341° |
| 2026-04-10 16:25 | 43.58837 | 0.94732 | 38031 ft | 429 kts | 341° |
| 2026-04-10 16:25 | 43.64452 | 0.91919 | 38040 ft | 429 kts | 341° |
| 2026-04-10 16:26 | 43.70046 | 0.89112 | 38034 ft | 428 kts | 341° |
| 2026-04-10 16:26 | 43.75644 | 0.86297 | 38034 ft | 428 kts | 341° |
| 2026-04-10 16:27 | 43.81239 | 0.83478 | 38034 ft | 428 kts | 341° |
| 2026-04-10 16:27 | 43.86831 | 0.80655 | 38040 ft | 427 kts | 341° |
| 2026-04-10 16:28 | 43.92409 | 0.77833 | 38021 ft | 427 kts | 341° |
| 2026-04-10 16:28 | 43.97990 | 0.75004 | 38027 ft | 427 kts | 341° |
| 2026-04-10 16:29 | 44.03576 | 0.72167 | 38031 ft | 428 kts | 340° |
| 2026-04-10 16:29 | 44.09162 | 0.69325 | 38029 ft | 427 kts | 340° |
| 2026-04-10 16:30 | 44.14704 | 0.66498 | 38013 ft | 427 kts | 340° |
| 2026-04-10 16:30 | 44.20318 | 0.63630 | 38024 ft | 427 kts | 340° |
| 2026-04-10 16:31 | 44.25855 | 0.60795 | 38018 ft | 427 kts | 340° |
| 2026-04-10 16:31 | 44.31428 | 0.57936 | 38041 ft | 426 kts | 340° |
| 2026-04-10 16:32 | 44.36990 | 0.55076 | 38020 ft | 426 kts | 340° |
| 2026-04-10 16:32 | 44.42562 | 0.52206 | 38041 ft | 426 kts | 340° |
| 2026-04-10 16:33 | 44.48083 | 0.49197 | 38026 ft | 425 kts | 338° |
| 2026-04-10 16:33 | 44.53551 | 0.46052 | 38026 ft | 425 kts | 338° |
| 2026-04-10 16:34 | 44.59017 | 0.42890 | 38033 ft | 425 kts | 338° |
| 2026-04-10 16:34 | 44.64482 | 0.39743 | 38020 ft | 424 kts | 338° |
| 2026-04-10 16:35 | 44.69934 | 0.36609 | 38020 ft | 423 kts | 338° |
| 2026-04-10 16:35 | 44.75395 | 0.33465 | 38019 ft | 424 kts | 338° |
| 2026-04-10 16:36 | 44.80860 | 0.30313 | 38026 ft | 424 kts | 338° |
| 2026-04-10 16:36 | 44.86325 | 0.27153 | 38021 ft | 424 kts | 338° |
| 2026-04-10 16:37 | 44.91787 | 0.23988 | 38018 ft | 425 kts | 338° |
| 2026-04-10 16:37 | 44.97248 | 0.20818 | 38018 ft | 425 kts | 338° |
| 2026-04-10 16:38 | 45.02711 | 0.17640 | 38016 ft | 423 kts | 337° |
| 2026-04-10 16:38 | 45.08138 | 0.14476 | 38014 ft | 422 kts | 337° |
| 2026-04-10 16:39 | 45.13560 | 0.11307 | 38019 ft | 421 kts | 337° |
| 2026-04-10 16:39 | 45.18980 | 0.08134 | 38008 ft | 421 kts | 337° |
| 2026-04-10 16:40 | 45.24393 | 0.04959 | 38010 ft | 420 kts | 336° |
| 2026-04-10 16:40 | 45.29792 | 0.01785 | 38012 ft | 420 kts | 336° |
| 2026-04-10 16:41 | 45.35188 | -0.01394 | 38000 ft | 420 kts | 336° |
| 2026-04-10 16:41 | 45.40589 | -0.04582 | 38007 ft | 420 kts | 336° |
| 2026-04-10 16:42 | 45.45982 | -0.07772 | 37998 ft | 419 kts | 336° |
| 2026-04-10 16:42 | 45.51365 | -0.10962 | 37999 ft | 419 kts | 336° |
| 2026-04-10 16:43 | 45.56713 | -0.14139 | 37992 ft | 419 kts | 336° |
| 2026-04-10 16:43 | 45.62127 | -0.17361 | 37993 ft | 418 kts | 335° |
| 2026-04-10 16:44 | 45.67481 | -0.20554 | 37992 ft | 417 kts | 335° |
| 2026-04-10 16:44 | 45.72798 | -0.23732 | 37995 ft | 417 kts | 335° |
| 2026-04-10 16:45 | 45.78150 | -0.26938 | 38004 ft | 417 kts | 335° |
| 2026-04-10 16:45 | 45.83490 | -0.30143 | 37996 ft | 416 kts | 335° |
| 2026-04-10 16:46 | 45.88826 | -0.33352 | 37997 ft | 416 kts | 335° |
| 2026-04-10 16:46 | 45.94159 | -0.36567 | 37997 ft | 416 kts | 335° |
| 2026-04-10 16:47 | 45.99498 | -0.39791 | 38003 ft | 416 kts | 335° |
| 2026-04-10 16:47 | 46.04818 | -0.43010 | 37996 ft | 414 kts | 335° |
| 2026-04-10 16:48 | 46.10134 | -0.46234 | 37997 ft | 414 kts | 335° |
| 2026-04-10 16:48 | 46.15449 | -0.49465 | 37996 ft | 414 kts | 334° |
| 2026-04-10 16:49 | 46.20754 | -0.52695 | 37997 ft | 414 kts | 334° |
| 2026-04-10 16:49 | 46.26058 | -0.55933 | 38008 ft | 413 kts | 334° |
| 2026-04-10 16:50 | 46.31359 | -0.59175 | 38001 ft | 413 kts | 334° |
| 2026-04-10 16:50 | 46.36657 | -0.62423 | 38001 ft | 414 kts | 334° |
| 2026-04-10 16:51 | 46.42000 | -0.65501 | 37995 ft | 415 kts | 340° |
| 2026-04-10 16:51 | 46.46732 | -0.66884 | 37997 ft | 419 kts | 347° |
| 2026-04-10 16:52 | 46.52533 | -0.67970 | 37999 ft | 421 kts | 349° |
| 2026-04-10 16:52 | 46.58356 | -0.68911 | 38014 ft | 421 kts | 348° |
| 2026-04-10 16:53 | 46.64173 | -0.69852 | 37999 ft | 420 kts | 348° |
| 2026-04-10 16:53 | 46.69987 | -0.70820 | 37999 ft | 420 kts | 348° |
| 2026-04-10 16:54 | 46.75794 | -0.71802 | 37995 ft | 420 kts | 348° |
| 2026-04-10 16:54 | 46.81606 | -0.72788 | 37996 ft | 420 kts | 348° |
| 2026-04-10 16:55 | 46.87411 | -0.73775 | 37993 ft | 420 kts | 348° |
| 2026-04-10 16:55 | 46.93226 | -0.74765 | 37994 ft | 420 kts | 348° |
| 2026-04-10 16:56 | 46.99035 | -0.75755 | 37999 ft | 421 kts | 347° |
| 2026-04-10 16:56 | 47.04880 | -0.76756 | 37991 ft | 425 kts | 347° |
| 2026-04-10 16:57 | 47.10762 | -0.77764 | 37994 ft | 426 kts | 347° |
| 2026-04-10 16:57 | 47.16643 | -0.78772 | 37993 ft | 426 kts | 347° |
| 2026-04-10 16:58 | 47.22527 | -0.79782 | 37992 ft | 425 kts | 347° |
| 2026-04-10 16:58 | 47.28405 | -0.80796 | 37994 ft | 425 kts | 347° |
| 2026-04-10 16:59 | 47.34287 | -0.81813 | 37995 ft | 426 kts | 347° |
| 2026-04-10 16:59 | 47.40169 | -0.82831 | 38008 ft | 426 kts | 347° |
| 2026-04-10 17:00 | 47.46058 | -0.83853 | 37993 ft | 427 kts | 346° |
| 2026-04-10 17:00 | 47.51965 | -0.84882 | 37995 ft | 428 kts | 346° |
| 2026-04-10 17:01 | 47.57899 | -0.85765 | 37997 ft | 430 kts | 348° |
| 2026-04-10 17:01 | 47.63869 | -0.86472 | 38000 ft | 430 kts | 348° |
| 2026-04-10 17:02 | 47.69837 | -0.87165 | 38003 ft | 430 kts | 348° |
| 2026-04-10 17:02 | 47.75806 | -0.87879 | 37997 ft | 430 kts | 348° |
| 2026-04-10 17:03 | 47.81776 | -0.88609 | 38015 ft | 430 kts | 347° |
| 2026-04-10 17:03 | 47.87741 | -0.89343 | 38015 ft | 431 kts | 347° |
| 2026-04-10 17:04 | 47.93715 | -0.90081 | 38018 ft | 431 kts | 347° |
| 2026-04-10 17:04 | 47.99686 | -0.90819 | 38020 ft | 431 kts | 347° |
| 2026-04-10 17:05 | 48.05665 | -0.91558 | 38019 ft | 431 kts | 347° |
| 2026-04-10 17:05 | 48.11632 | -0.92298 | 38019 ft | 431 kts | 347° |
| 2026-04-10 17:06 | 48.17560 | -0.93035 | 38018 ft | 430 kts | 347° |
| 2026-04-10 17:06 | 48.23532 | -0.93781 | 38036 ft | 431 kts | 347° |
| 2026-04-10 17:07 | 48.29551 | -0.94535 | 38018 ft | 432 kts | 346° |
| 2026-04-10 17:07 | 48.35498 | -0.95278 | 38017 ft | 432 kts | 346° |
| 2026-04-10 17:08 | 48.41493 | -0.96029 | 38023 ft | 432 kts | 347° |
| 2026-04-10 17:08 | 48.47480 | -0.96783 | 38022 ft | 432 kts | 346° |
| 2026-04-10 17:09 | 48.53469 | -0.97539 | 38027 ft | 432 kts | 346° |
| 2026-04-10 17:09 | 48.59462 | -0.98298 | 38029 ft | 432 kts | 346° |
| 2026-04-10 17:10 | 48.65447 | -0.99056 | 38069 ft | 432 kts | 346° |
| 2026-04-10 17:10 | 48.71438 | -0.99815 | 38029 ft | 431 kts | 346° |
| 2026-04-10 17:11 | 48.77415 | -1.00575 | 38026 ft | 431 kts | 346° |
| 2026-04-10 17:11 | 48.83386 | -1.01337 | 38030 ft | 431 kts | 346° |
| 2026-04-10 17:12 | 48.89365 | -1.02103 | 38031 ft | 431 kts | 346° |
| 2026-04-10 17:12 | 48.95335 | -1.02870 | 38040 ft | 431 kts | 346° |
| 2026-04-10 17:13 | 49.01312 | -1.03637 | 38032 ft | 431 kts | 346° |
| 2026-04-10 17:13 | 49.07290 | -1.04408 | 38041 ft | 431 kts | 346° |
| 2026-04-10 17:14 | 49.13269 | -1.05180 | 38035 ft | 431 kts | 345° |
| 2026-04-10 17:14 | 49.19253 | -1.05956 | 38034 ft | 432 kts | 345° |
| 2026-04-10 17:15 | 49.25206 | -1.06730 | 38031 ft | 432 kts | 345° |
| 2026-04-10 17:15 | 49.31191 | -1.07508 | 38054 ft | 432 kts | 345° |
| 2026-04-10 17:16 | 49.37191 | -1.08291 | 38036 ft | 433 kts | 345° |
| 2026-04-10 17:16 | 49.43189 | -1.09075 | 38038 ft | 433 kts | 345° |
| 2026-04-10 17:17 | 49.49192 | -1.09861 | 38035 ft | 433 kts | 345° |
| 2026-04-10 17:17 | 49.55193 | -1.10649 | 38035 ft | 433 kts | 345° |
| 2026-04-10 17:18 | 49.61297 | -1.10652 | 38030 ft | 444 kts | 353° |
| 2026-04-10 17:18 | 49.64385 | -1.10322 | 37860 ft | 445 kts | 354° |
| 2026-04-10 17:18 | 49.67461 | -1.09923 | 37547 ft | 441 kts | 354° |
| 2026-04-10 17:18 | 49.70505 | -1.09492 | 37158 ft | 438 kts | 355° |
| 2026-04-10 17:19 | 49.73546 | -1.09057 | 36548 ft | 440 kts | 355° |
| 2026-04-10 17:19 | 49.76601 | -1.08624 | 35992 ft | 443 kts | 355° |
| 2026-04-10 17:19 | 49.79695 | -1.08197 | 35559 ft | 452 kts | 355° |
| 2026-04-10 17:19 | 49.82881 | -1.07773 | 34910 ft | 465 kts | 355° |
| 2026-04-10 17:20 | 49.86115 | -1.07337 | 34301 ft | 469 kts | 356° |
| 2026-04-10 17:20 | 49.89382 | -1.06885 | 33701 ft | 472 kts | 356° |
| 2026-04-10 17:20 | 49.92658 | -1.06427 | 33131 ft | 474 kts | 356° |
| 2026-04-10 17:21 | 49.99278 | -1.05504 | 32139 ft | 481 kts | 356° |
| 2026-04-10 17:21 | 50.02618 | -1.05039 | 31599 ft | 483 kts | 356° |
| 2026-04-10 17:21 | 50.05970 | -1.04571 | 30920 ft | 483 kts | 356° |
| 2026-04-10 17:21 | 50.09313 | -1.04099 | 30363 ft | 481 kts | 356° |
| 2026-04-10 17:22 | 50.12639 | -1.03629 | 29766 ft | 478 kts | 356° |
| 2026-04-10 17:22 | 50.15933 | -1.03163 | 29186 ft | 474 kts | 356° |
| 2026-04-10 17:22 | 50.19160 | -1.02707 | 28691 ft | 469 kts | 356° |
| 2026-04-10 17:22 | 50.22396 | -1.02251 | 28129 ft | 465 kts | 356° |
| 2026-04-10 17:23 | 50.25646 | -1.01795 | 27584 ft | 460 kts | 356° |
| 2026-04-10 17:23 | 50.28819 | -1.01349 | 27057 ft | 456 kts | 356° |
| 2026-04-10 17:23 | 50.31918 | -1.00866 | 26651 ft | 453 kts | 1° |
| 2026-04-10 17:23 | 50.34993 | -0.99743 | 26213 ft | 454 kts | 7° |
| 2026-04-10 17:24 | 50.38011 | -0.98364 | 25794 ft | 451 kts | 9° |
| 2026-04-10 17:24 | 50.40998 | -0.96863 | 25429 ft | 449 kts | 11° |
| 2026-04-10 17:24 | 50.43956 | -0.95305 | 25072 ft | 446 kts | 11° |
| 2026-04-10 17:24 | 50.46876 | -0.93737 | 24696 ft | 442 kts | 12° |
| 2026-04-10 17:25 | 50.49771 | -0.92176 | 24337 ft | 437 kts | 11° |
| 2026-04-10 17:25 | 50.52637 | -0.90637 | 23986 ft | 433 kts | 11° |
| 2026-04-10 17:25 | 50.55470 | -0.89123 | 23639 ft | 429 kts | 11° |
| 2026-04-10 17:25 | 50.58284 | -0.87628 | 23239 ft | 425 kts | 11° |
| 2026-04-10 17:26 | 50.61077 | -0.86148 | 22913 ft | 422 kts | 11° |
| 2026-04-10 17:26 | 50.63861 | -0.84675 | 22586 ft | 421 kts | 12° |
| 2026-04-10 17:26 | 50.66607 | -0.83218 | 22327 ft | 412 kts | 12° |
| 2026-04-10 17:26 | 50.69294 | -0.81786 | 22015 ft | 403 kts | 12° |
| 2026-04-10 17:27 | 50.71918 | -0.80388 | 21667 ft | 393 kts | 12° |
| 2026-04-10 17:27 | 50.74455 | -0.79030 | 21332 ft | 376 kts | 12° |
| 2026-04-10 17:27 | 50.76859 | -0.77626 | 21008 ft | 365 kts | 18° |
| 2026-04-10 17:27 | 50.78975 | -0.75345 | 20387 ft | 378 kts | 42° |
| 2026-04-10 17:28 | 50.80398 | -0.71816 | 19955 ft | 385 kts | 69° |
| 2026-04-10 17:28 | 50.80857 | -0.67674 | 19557 ft | 384 kts | 92° |
| 2026-04-10 17:28 | 50.80661 | -0.63500 | 19235 ft | 378 kts | 98° |
| 2026-04-10 17:28 | 50.80368 | -0.59386 | 18863 ft | 376 kts | 98° |
| 2026-04-10 17:29 | 50.80086 | -0.55287 | 18538 ft | 373 kts | 98° |
| 2026-04-10 17:29 | 50.79826 | -0.51225 | 18148 ft | 370 kts | 97° |
| 2026-04-10 17:29 | 50.79580 | -0.47178 | 17728 ft | 368 kts | 97° |
| 2026-04-10 17:29 | 50.79343 | -0.43163 | 17300 ft | 366 kts | 97° |
| 2026-04-10 17:30 | 50.79177 | -0.39159 | 16915 ft | 364 kts | 90° |
| 2026-04-10 17:30 | 50.79392 | -0.35208 | 16600 ft | 360 kts | 82° |
| 2026-04-10 17:30 | 50.79765 | -0.31316 | 16234 ft | 356 kts | 81° |
| 2026-04-10 17:30 | 50.80149 | -0.27457 | 15849 ft | 354 kts | 81° |
| 2026-04-10 17:31 | 50.80530 | -0.23628 | 15482 ft | 352 kts | 81° |
| 2026-04-10 17:31 | 50.80906 | -0.19822 | 15111 ft | 350 kts | 81° |
| 2026-04-10 17:31 | 50.81277 | -0.16026 | 14736 ft | 348 kts | 81° |
| 2026-04-10 17:31 | 50.81644 | -0.12248 | 14373 ft | 346 kts | 81° |
| 2026-04-10 17:32 | 50.82004 | -0.08500 | 14013 ft | 344 kts | 81° |
| 2026-04-10 17:32 | 50.82359 | -0.04779 | 13619 ft | 342 kts | 81° |
| 2026-04-10 17:32 | 50.82713 | -0.01057 | 13189 ft | 341 kts | 81° |
| 2026-04-10 17:32 | 50.83060 | 0.02636 | 12803 ft | 338 kts | 81° |
| 2026-04-10 17:33 | 50.83401 | 0.06307 | 12423 ft | 336 kts | 81° |
| 2026-04-10 17:33 | 50.83737 | 0.09949 | 12079 ft | 333 kts | 81° |
| 2026-04-10 17:33 | 50.84071 | 0.13534 | 11897 ft | 324 kts | 81° |
| 2026-04-10 17:33 | 50.84393 | 0.17007 | 11768 ft | 314 kts | 81° |
| 2026-04-10 17:34 | 50.84703 | 0.20372 | 11589 ft | 304 kts | 81° |
| 2026-04-10 17:34 | 50.85004 | 0.23642 | 11195 ft | 299 kts | 81° |
| 2026-04-10 17:34 | 50.85304 | 0.26900 | 10849 ft | 298 kts | 81° |
| 2026-04-10 17:34 | 50.85603 | 0.30134 | 10567 ft | 296 kts | 81° |
| 2026-04-10 17:35 | 50.85900 | 0.33352 | 10280 ft | 295 kts | 81° |
| 2026-04-10 17:35 | 50.86253 | 0.36539 | 9977 ft | 294 kts | 70° |
| 2026-04-10 17:35 | 50.87226 | 0.39303 | 9660 ft | 284 kts | 41° |
| 2026-04-10 17:35 | 50.88794 | 0.41031 | 9342 ft | 269 kts | 13° |
| 2026-04-10 17:36 | 50.90570 | 0.41411 | 8992 ft | 252 kts | 345° |
| 2026-04-10 17:36 | 50.92227 | 0.40724 | 8647 ft | 245 kts | 333° |
| 2026-04-10 17:36 | 50.93280 | 0.40092 | 8430 ft | 244 kts | 332° |
| 2026-04-10 17:36 | 50.94854 | 0.39091 | 8072 ft | 245 kts | 331° |
| 2026-04-10 17:37 | 50.96431 | 0.38063 | 7713 ft | 245 kts | 331° |
| 2026-04-10 17:37 | 50.98006 | 0.37014 | 7385 ft | 245 kts | 331° |
| 2026-04-10 17:37 | 51.00084 | 0.35595 | 6943 ft | 246 kts | 331° |
| 2026-04-10 17:37 | 51.01145 | 0.34856 | 6707 ft | 246 kts | 331° |
| 2026-04-10 17:38 | 51.03216 | 0.33385 | 6269 ft | 247 kts | 331° |
| 2026-04-10 17:38 | 51.04270 | 0.32593 | 6022 ft | 247 kts | 328° |
| 2026-04-10 17:38 | 51.05743 | 0.31213 | 5666 ft | 245 kts | 322° |
| 2026-04-10 17:38 | 51.07156 | 0.29709 | 5366 ft | 244 kts | 321° |
| 2026-04-10 17:39 | 51.08560 | 0.28198 | 5068 ft | 244 kts | 321° |
| 2026-04-10 17:39 | 51.09964 | 0.26683 | 4752 ft | 244 kts | 321° |
| 2026-04-10 17:39 | 51.11366 | 0.25167 | 4454 ft | 243 kts | 321° |
| 2026-04-10 17:39 | 51.12742 | 0.23675 | 4311 ft | 236 kts | 321° |
| 2026-04-10 17:40 | 51.14077 | 0.22228 | 4205 ft | 229 kts | 321° |
| 2026-04-10 17:40 | 51.15350 | 0.20843 | 4125 ft | 219 kts | 321° |
| 2026-04-10 17:40 | 51.16577 | 0.19512 | 4051 ft | 208 kts | 321° |
| 2026-04-10 17:40 | 51.17750 | 0.18247 | 3930 ft | 199 kts | 321° |
| 2026-04-10 17:41 | 51.18871 | 0.17020 | 3812 ft | 191 kts | 316° |
| 2026-04-10 17:41 | 51.19702 | 0.15466 | 3635 ft | 180 kts | 291° |
| 2026-04-10 17:41 | 51.19977 | 0.13608 | 3412 ft | 170 kts | 262° |
| 2026-04-10 17:41 | 51.19785 | 0.11823 | 3331 ft | 157 kts | 250° |
| 2026-04-10 17:42 | 51.19491 | 0.10180 | 3184 ft | 152 kts | 247° |
| 2026-04-10 17:42 | 51.19179 | 0.08590 | 3064 ft | 150 kts | 247° |
| 2026-04-10 17:42 | 51.18860 | 0.07004 | 3068 ft | 150 kts | 247° |
| 2026-04-10 17:42 | 51.18542 | 0.05428 | 3077 ft | 149 kts | 246° |
| 2026-04-10 17:43 | 51.18198 | 0.03866 | 3086 ft | 148 kts | 240° |
| 2026-04-10 17:43 | 51.17801 | 0.02355 | 3099 ft | 148 kts | 246° |
| 2026-04-10 17:43 | 51.17545 | 0.00799 | 3044 ft | 142 kts | 250° |
| 2026-04-10 17:43 | 51.17331 | -0.00733 | 2925 ft | 142 kts | 252° |
| 2026-04-10 17:44 | 51.17115 | -0.02307 | 2535 ft | 152 kts | 252° |
| 2026-04-10 17:44 | 51.16883 | -0.03985 | 2232 ft | 153 kts | 252° |
| 2026-04-10 17:44 | 51.16668 | -0.05571 | 2105 ft | 140 kts | 252° |
| 2026-04-10 17:44 | 51.16458 | -0.07072 | 1862 ft | 138 kts | 252° |
| 2026-04-10 17:45 | 51.16253 | -0.08562 | 1507 ft | 141 kts | 252° |
| 2026-04-10 17:45 | 51.16043 | -0.10097 | 1203 ft | 140 kts | 251° |
| 2026-04-10 17:45 | 51.15841 | -0.11575 | 969 ft | 133 kts | 252° |
| 2026-04-10 17:45 | 51.15643 | -0.13005 | 775 ft | 131 kts | 254° |
| 2026-04-10 17:46 | 51.15448 | -0.14425 | 598 ft | 131 kts | 255° |
| 2026-04-10 17:46 | 51.15254 | -0.15845 | 431 ft | 132 kts | 255° |
| 2026-04-10 17:46 | 51.15063 | -0.17263 | 271 ft | 130 kts | 255° |
| 2026-04-10 17:46 | 51.14867 | -0.18660 | 210 ft | 124 kts | 255° |
| 2026-04-10 17:47 | 51.14724 | -0.19667 | 217 ft | 55 kts | 258° |
| 2026-04-10 17:47 | 51.14704 | -0.19922 | 208 ft | 4 kts | 269° |
| 2026-04-10 17:47 | 51.14715 | -0.20095 | 217 ft | 26 kts | 282° |
| 2026-04-10 17:47 | 51.14756 | -0.20392 | 216 ft | 26 kts | 283° |
| 2026-04-10 17:48 | 51.14815 | -0.20626 | 214 ft | 19 kts | 336° |
| 2026-04-10 17:48 | 51.14876 | -0.20546 | 214 ft | 11 kts | 66° |
| 2026-04-10 17:48 | 51.14897 | -0.20421 | 215 ft | 13 kts | 77° |
| 2026-04-10 17:48 | 51.14917 | -0.20272 | 212 ft | 15 kts | 78° |
| 2026-04-10 17:49 | 51.14940 | -0.20102 | 215 ft | 17 kts | 78° |
| 2026-04-10 17:49 | 51.14967 | -0.19912 | 213 ft | 18 kts | 77° |
| 2026-04-10 17:49 | 51.14994 | -0.19708 | 211 ft | 20 kts | 78° |
| 2026-04-10 17:49 | 51.15024 | -0.19486 | 214 ft | 21 kts | 77° |
| 2026-04-10 17:50 | 51.15057 | -0.19246 | 218 ft | 23 kts | 78° |
| 2026-04-10 17:50 | 51.15093 | -0.18993 | 214 ft | 24 kts | 77° |
| 2026-04-10 17:50 | 51.15130 | -0.18725 | 218 ft | 24 kts | 78° |
| 2026-04-10 17:50 | 51.15167 | -0.18459 | 213 ft | 25 kts | 77° |
| 2026-04-10 17:51 | 51.15202 | -0.18248 | 217 ft | 5 kts | 39° |
| 2026-04-10 17:51 | 51.15242 | -0.18229 | 216 ft | 7 kts | 358° |
| 2026-04-10 17:51 | 51.15298 | -0.18244 | 214 ft | 9 kts | 349° |
| 2026-04-10 17:51 | 51.15370 | -0.18269 | 214 ft | 12 kts | 346° |
| 2026-04-10 17:52 | 51.15442 | -0.18278 | 211 ft | 5 kts | 32° |
| 2026-04-10 17:52 | 51.15446 | -0.18252 | 219 ft | 3 kts | 82° |
| 2026-04-10 17:52 | 51.15448 | -0.18195 | 216 ft | 7 kts | 86° |
| 2026-04-10 17:52 | 51.15457 | -0.18095 | 212 ft | 11 kts | 78° |
| 2026-04-10 17:53 | 51.15476 | -0.17954 | 218 ft | 15 kts | 78° |
| 2026-04-10 17:53 | 51.15502 | -0.17775 | 213 ft | 18 kts | 76° |
| 2026-04-10 17:53 | 51.15529 | -0.17577 | 216 ft | 10 kts | 83° |
| 2026-04-10 17:53 | 51.15526 | -0.17564 | 215 ft | 2 kts | 106° |
| 2026-04-10 17:54 | 51.15506 | -0.17544 | 217 ft | 5 kts | 163° |
| 2026-04-10 17:54 | 51.15465 | -0.17527 | 207 ft | 1 kts | 167° |
| 2026-04-10 17:54 | 51.15459 | -0.17525 | 210 ft | 0 kts | 167° |